﻿<?xml version="1.0" encoding="utf-8"?><gpx creator="Garmin Desktop App" version="1.1" xsi:schemaLocation="http://www.topografix.com/GPX/1/1 http://www.topografix.com/GPX/1/1/gpx.xsd http://www.garmin.com/xmlschemas/WaypointExtension/v1 http://www8.garmin.com/xmlschemas/WaypointExtensionv1.xsd http://www.garmin.com/xmlschemas/TrackPointExtension/v1 http://www.garmin.com/xmlschemas/TrackPointExtensionv1.xsd http://www.garmin.com/xmlschemas/GpxExtensions/v3 http://www8.garmin.com/xmlschemas/GpxExtensionsv3.xsd http://www.garmin.com/xmlschemas/ActivityExtension/v1 http://www8.garmin.com/xmlschemas/ActivityExtensionv1.xsd http://www.garmin.com/xmlschemas/AdventuresExtensions/v1 http://www8.garmin.com/xmlschemas/AdventuresExtensionv1.xsd http://www.garmin.com/xmlschemas/PressureExtension/v1 http://www.garmin.com/xmlschemas/PressureExtensionv1.xsd http://www.garmin.com/xmlschemas/TripExtensions/v1 http://www.garmin.com/xmlschemas/TripExtensionsv1.xsd http://www.garmin.com/xmlschemas/TripMetaDataExtensions/v1 http://www.garmin.com/xmlschemas/TripMetaDataExtensionsv1.xsd http://www.garmin.com/xmlschemas/ViaPointTransportationModeExtensions/v1 http://www.garmin.com/xmlschemas/ViaPointTransportationModeExtensionsv1.xsd http://www.garmin.com/xmlschemas/CreationTimeExtension/v1 http://www.garmin.com/xmlschemas/CreationTimeExtensionsv1.xsd http://www.garmin.com/xmlschemas/AccelerationExtension/v1 http://www.garmin.com/xmlschemas/AccelerationExtensionv1.xsd http://www.garmin.com/xmlschemas/PowerExtension/v1 http://www.garmin.com/xmlschemas/PowerExtensionv1.xsd http://www.garmin.com/xmlschemas/VideoExtension/v1 http://www.garmin.com/xmlschemas/VideoExtensionv1.xsd" xmlns="http://www.topografix.com/GPX/1/1" xmlns:xsi="http://www.w3.org/2001/XMLSchema-instance" xmlns:wptx1="http://www.garmin.com/xmlschemas/WaypointExtension/v1" xmlns:gpxtrx="http://www.garmin.com/xmlschemas/GpxExtensions/v3" xmlns:gpxtpx="http://www.garmin.com/xmlschemas/TrackPointExtension/v1" xmlns:gpxx="http://www.garmin.com/xmlschemas/GpxExtensions/v3" xmlns:trp="http://www.garmin.com/xmlschemas/TripExtensions/v1" xmlns:adv="http://www.garmin.com/xmlschemas/AdventuresExtensions/v1" xmlns:prs="http://www.garmin.com/xmlschemas/PressureExtension/v1" xmlns:tmd="http://www.garmin.com/xmlschemas/TripMetaDataExtensions/v1" xmlns:vptm="http://www.garmin.com/xmlschemas/ViaPointTransportationModeExtensions/v1" xmlns:ctx="http://www.garmin.com/xmlschemas/CreationTimeExtension/v1" xmlns:gpxacc="http://www.garmin.com/xmlschemas/AccelerationExtension/v1" xmlns:gpxpx="http://www.garmin.com/xmlschemas/PowerExtension/v1" xmlns:vidx1="http://www.garmin.com/xmlschemas/VideoExtension/v1">

  <metadata>
    <link href="http://www.garmin.com">
      <text>Garmin International</text>
    </link>
    <time>2022-06-27T13:36:21Z</time>
    <bounds maxlat="51.259565893560648" maxlon="4.639587672427297" minlat="51.216203961521387" minlon="4.590684548020363" />
  </metadata>

  <trk>
    <name>zoersel stroopop inslag 16 km</name>
    <extensions>
      <gpxx:TrackExtension>
        <gpxx:DisplayColor>Magenta</gpxx:DisplayColor>
      </gpxx:TrackExtension>
    </extensions>
    <trkseg>
      <trkpt lat="51.226478079333901" lon="4.639587672427297">
        <ele>0.2</ele>
        <time>2022-06-26T08:20:38Z</time>
      </trkpt>
      <trkpt lat="51.226597018539906" lon="4.63945884257555">
        <ele>0.22</ele>
        <time>2022-06-26T08:20:49Z</time>
      </trkpt>
      <trkpt lat="51.226707911118865" lon="4.639314254745841">
        <ele>0.26</ele>
        <time>2022-06-26T08:21:03Z</time>
      </trkpt>
      <trkpt lat="51.226738002151251" lon="4.639325151219964">
        <ele>0.27</ele>
        <time>2022-06-26T08:21:06Z</time>
      </trkpt>
      <trkpt lat="51.226877644658089" lon="4.639346692711115">
        <ele>0.29</ele>
        <time>2022-06-26T08:21:19Z</time>
      </trkpt>
      <trkpt lat="51.226956266909838" lon="4.639364881440997">
        <ele>0.32</ele>
        <time>2022-06-26T08:21:34Z</time>
      </trkpt>
      <trkpt lat="51.227000942453742" lon="4.639218701049686">
        <ele>0.31</ele>
        <time>2022-06-26T08:21:43Z</time>
      </trkpt>
      <trkpt lat="51.227182159200311" lon="4.639037400484085">
        <ele>0.26</ele>
        <time>2022-06-26T08:21:58Z</time>
      </trkpt>
      <trkpt lat="51.227265726774931" lon="4.638960873708129">
        <ele>0.24</ele>
        <time>2022-06-26T08:22:03Z</time>
      </trkpt>
      <trkpt lat="51.227447362616658" lon="4.638811340555549">
        <ele>0.17</ele>
        <time>2022-06-26T08:22:15Z</time>
      </trkpt>
      <trkpt lat="51.227576108649373" lon="4.638615790754557">
        <ele>0.11</ele>
        <time>2022-06-26T08:22:25Z</time>
      </trkpt>
      <trkpt lat="51.22773083858192" lon="4.63839702308178">
        <ele>0.89</ele>
        <time>2022-06-26T08:22:40Z</time>
      </trkpt>
      <trkpt lat="51.227794792503119" lon="4.63830666616559">
        <ele>0.84</ele>
        <time>2022-06-26T08:22:46Z</time>
      </trkpt>
      <trkpt lat="51.22798983938992" lon="4.638095023110509">
        <ele>0.69</ele>
        <time>2022-06-26T08:23:02Z</time>
      </trkpt>
      <trkpt lat="51.228156723082066" lon="4.637834681198001">
        <ele>0.51</ele>
        <time>2022-06-26T08:23:21Z</time>
      </trkpt>
      <trkpt lat="51.228376161307096" lon="4.637611303478479">
        <ele>0.32</ele>
        <time>2022-06-26T08:23:39Z</time>
      </trkpt>
      <trkpt lat="51.22830550186336" lon="4.637349033728242">
        <ele>0.16</ele>
        <time>2022-06-26T08:23:55Z</time>
      </trkpt>
      <trkpt lat="51.228181701153517" lon="4.637186257168651">
        <ele>0.04</ele>
        <time>2022-06-26T08:24:09Z</time>
      </trkpt>
      <trkpt lat="51.227937117218971" lon="4.636983666568995">
        <ele>-0.17</ele>
        <time>2022-06-26T08:24:32Z</time>
      </trkpt>
      <trkpt lat="51.227910798043013" lon="4.63697268627584">
        <ele>-0.18</ele>
        <time>2022-06-26T08:24:34Z</time>
      </trkpt>
      <trkpt lat="51.227761935442686" lon="4.636786272749305">
        <ele>-0.33</ele>
        <time>2022-06-26T08:24:48Z</time>
      </trkpt>
      <trkpt lat="51.227603433653712" lon="4.636641852557659">
        <ele>-0.5</ele>
        <time>2022-06-26T08:25:01Z</time>
      </trkpt>
      <trkpt lat="51.22748457826674" lon="4.636416379362345">
        <ele>-0.64</ele>
        <time>2022-06-26T08:25:13Z</time>
      </trkpt>
      <trkpt lat="51.22750855050981" lon="4.635936096310616">
        <ele>2.82</ele>
        <time>2022-06-26T08:25:31Z</time>
      </trkpt>
      <trkpt lat="51.227502850815654" lon="4.635752951726317">
        <ele>-0.18</ele>
        <time>2022-06-26T08:25:39Z</time>
      </trkpt>
      <trkpt lat="51.227475525811315" lon="4.635230004787445">
        <ele>-0.37</ele>
        <time>2022-06-26T08:25:54Z</time>
      </trkpt>
      <trkpt lat="51.227488098666072" lon="4.634857261553407">
        <ele>-1.38</ele>
        <time>2022-06-26T08:26:08Z</time>
      </trkpt>
      <trkpt lat="51.227481309324503" lon="4.634606894105673">
        <ele>-1.5</ele>
        <time>2022-06-26T08:26:18Z</time>
      </trkpt>
      <trkpt lat="51.227465970441699" lon="4.634476220235229">
        <ele>-0.19</ele>
        <time>2022-06-26T08:26:26Z</time>
      </trkpt>
      <trkpt lat="51.22746161185205" lon="4.634266588836908">
        <ele>-0.33</ele>
        <time>2022-06-26T08:26:42Z</time>
      </trkpt>
      <trkpt lat="51.227479297667742" lon="4.633970875293016">
        <ele>-0.56</ele>
        <time>2022-06-26T08:27:07Z</time>
      </trkpt>
      <trkpt lat="51.227468904107809" lon="4.6336177457124">
        <ele>-0.82</ele>
        <time>2022-06-26T08:27:29Z</time>
      </trkpt>
      <trkpt lat="51.22746697627008" lon="4.632955910637975">
        <ele>-1.08</ele>
        <time>2022-06-26T08:27:48Z</time>
      </trkpt>
      <trkpt lat="51.227447194978595" lon="4.632343109697104">
        <ele>-1.32</ele>
        <time>2022-06-26T08:28:06Z</time>
      </trkpt>
      <trkpt lat="51.227397741749883" lon="4.631771966814995">
        <ele>-1.58</ele>
        <time>2022-06-26T08:28:26Z</time>
      </trkpt>
      <trkpt lat="51.227417103946209" lon="4.631569543853402">
        <ele>-1.73</ele>
        <time>2022-06-26T08:28:38Z</time>
      </trkpt>
      <trkpt lat="51.227446272969246" lon="4.63125966489315">
        <ele>-1.92</ele>
        <time>2022-06-26T08:28:52Z</time>
      </trkpt>
      <trkpt lat="51.227443339303136" lon="4.63084677234292">
        <ele>-4.44</ele>
        <time>2022-06-26T08:29:07Z</time>
      </trkpt>
      <trkpt lat="51.227487931028008" lon="4.630497749894857">
        <ele>-4.65</ele>
        <time>2022-06-26T08:29:22Z</time>
      </trkpt>
      <trkpt lat="51.227460606023669" lon="4.629965834319592">
        <ele>-4.96</ele>
        <time>2022-06-26T08:29:43Z</time>
      </trkpt>
      <trkpt lat="51.227450966835022" lon="4.629710102453828">
        <ele>-5.04</ele>
        <time>2022-06-26T08:29:49Z</time>
      </trkpt>
      <trkpt lat="51.227417942136526" lon="4.629233591258526">
        <ele>-5.19</ele>
        <time>2022-06-26T08:30:03Z</time>
      </trkpt>
      <trkpt lat="51.227361029013991" lon="4.628812735900283">
        <ele>-5.27</ele>
        <time>2022-06-26T08:30:18Z</time>
      </trkpt>
      <trkpt lat="51.227336721494794" lon="4.628518614917994">
        <ele>-5.29</ele>
        <time>2022-06-26T08:30:31Z</time>
      </trkpt>
      <trkpt lat="51.227338649332523" lon="4.628264140337706">
        <ele>-5.29</ele>
        <time>2022-06-26T08:30:46Z</time>
      </trkpt>
      <trkpt lat="51.227350383996964" lon="4.628026178106666">
        <ele>-5.3</ele>
        <time>2022-06-26T08:30:59Z</time>
      </trkpt>
      <trkpt lat="51.227338146418333" lon="4.62771755643189">
        <ele>-5.27</ele>
        <time>2022-06-26T08:31:12Z</time>
      </trkpt>
      <trkpt lat="51.22725198045373" lon="4.627530891448259">
        <ele>-5.27</ele>
        <time>2022-06-26T08:31:26Z</time>
      </trkpt>
      <trkpt lat="51.227168329060078" lon="4.627613537013531">
        <ele>-5.27</ele>
        <time>2022-06-26T08:31:33Z</time>
      </trkpt>
      <trkpt lat="51.227032290771604" lon="4.627876980230212">
        <ele>-5.25</ele>
        <time>2022-06-26T08:31:50Z</time>
      </trkpt>
      <trkpt lat="51.226918548345566" lon="4.628130868077278">
        <ele>-5.22</ele>
        <time>2022-06-26T08:32:03Z</time>
      </trkpt>
      <trkpt lat="51.226823749020696" lon="4.628349887207151">
        <ele>-5.2</ele>
        <time>2022-06-26T08:32:16Z</time>
      </trkpt>
      <trkpt lat="51.226706821471453" lon="4.628608888015151">
        <ele>-5.15</ele>
        <time>2022-06-26T08:32:32Z</time>
      </trkpt>
      <trkpt lat="51.226592576131225" lon="4.628846263512969">
        <ele>-5.12</ele>
        <time>2022-06-26T08:32:45Z</time>
      </trkpt>
      <trkpt lat="51.226517809554935" lon="4.629009542986751">
        <ele>-5.09</ele>
        <time>2022-06-26T08:32:54Z</time>
      </trkpt>
      <trkpt lat="51.226414125412703" lon="4.629222527146339">
        <ele>-5.06</ele>
        <time>2022-06-26T08:33:07Z</time>
      </trkpt>
      <trkpt lat="51.226339945569634" lon="4.629213223233819">
        <ele>-5.04</ele>
        <time>2022-06-26T08:33:18Z</time>
      </trkpt>
      <trkpt lat="51.226219246163964" lon="4.629121692851186">
        <ele>-5.04</ele>
        <time>2022-06-26T08:33:36Z</time>
      </trkpt>
      <trkpt lat="51.22596787288785" lon="4.628818770870566">
        <ele>-5.11</ele>
        <time>2022-06-26T08:33:55Z</time>
      </trkpt>
      <trkpt lat="51.225815741345286" lon="4.628550382331014">
        <ele>-5.99</ele>
        <time>2022-06-26T08:34:12Z</time>
      </trkpt>
      <trkpt lat="51.225775424391031" lon="4.628460947424173">
        <ele>-6.02</ele>
        <time>2022-06-26T08:34:16Z</time>
      </trkpt>
      <trkpt lat="51.225543664768338" lon="4.628270426765084">
        <ele>-6.18</ele>
        <time>2022-06-26T08:34:34Z</time>
      </trkpt>
      <trkpt lat="51.225350880995393" lon="4.628000529482961">
        <ele>-6.4</ele>
        <time>2022-06-26T08:34:52Z</time>
      </trkpt>
      <trkpt lat="51.225103279575706" lon="4.627585289999843">
        <ele>-6.63</ele>
        <time>2022-06-26T08:35:11Z</time>
      </trkpt>
      <trkpt lat="51.225011581555009" lon="4.627395020797849">
        <ele>-6.72</ele>
        <time>2022-06-26T08:35:18Z</time>
      </trkpt>
      <trkpt lat="51.224841009825468" lon="4.627169882878661">
        <ele>-6.88</ele>
        <time>2022-06-26T08:35:32Z</time>
      </trkpt>
      <trkpt lat="51.224828772246838" lon="4.627159405499697">
        <ele>-7.66</ele>
        <time>2022-06-26T08:35:33Z</time>
      </trkpt>
      <trkpt lat="51.224806560203433" lon="4.627129146829248">
        <ele>-7.71</ele>
        <time>2022-06-26T08:35:35Z</time>
      </trkpt>
      <trkpt lat="51.224770350381732" lon="4.627062007784843">
        <ele>-7.73</ele>
        <time>2022-06-26T08:35:39Z</time>
      </trkpt>
      <trkpt lat="51.224648812785745" lon="4.626886742189527">
        <ele>-7.86</ele>
        <time>2022-06-26T08:35:50Z</time>
      </trkpt>
      <trkpt lat="51.224512355402112" lon="4.626695550978184">
        <ele>-7.95</ele>
        <time>2022-06-26T08:36:03Z</time>
      </trkpt>
      <trkpt lat="51.22437103651464" lon="4.626506203785539">
        <ele>-8.01</ele>
        <time>2022-06-26T08:36:16Z</time>
      </trkpt>
      <trkpt lat="51.224334659054875" lon="4.626459935680032">
        <ele>-8.02</ele>
        <time>2022-06-26T08:36:18Z</time>
      </trkpt>
      <trkpt lat="51.224140617996454" lon="4.626234546303749">
        <ele>-8.109999999999999</ele>
        <time>2022-06-26T08:36:35Z</time>
      </trkpt>
      <trkpt lat="51.223940458148718" lon="4.625948304310441">
        <ele>-8.19</ele>
        <time>2022-06-26T08:36:54Z</time>
      </trkpt>
      <trkpt lat="51.223778519779444" lon="4.625718053430319">
        <ele>-8.24</ele>
        <time>2022-06-26T08:37:10Z</time>
      </trkpt>
      <trkpt lat="51.223567044362426" lon="4.625376155599952">
        <ele>-8.34</ele>
        <time>2022-06-26T08:37:29Z</time>
      </trkpt>
      <trkpt lat="51.223363531753421" lon="4.625080525875092">
        <ele>-8.369999999999999</ele>
        <time>2022-06-26T08:37:44Z</time>
      </trkpt>
      <trkpt lat="51.223351545631886" lon="4.625057727098465">
        <ele>-8.380000000000001</ele>
        <time>2022-06-26T08:37:45Z</time>
      </trkpt>
      <trkpt lat="51.223297398537397" lon="4.624975919723511">
        <ele>-8.4</ele>
        <time>2022-06-26T08:37:49Z</time>
      </trkpt>
      <trkpt lat="51.223077373579144" lon="4.624654892832041">
        <ele>-8.49</ele>
        <time>2022-06-26T08:38:05Z</time>
      </trkpt>
      <trkpt lat="51.222872016951442" lon="4.624363705515862">
        <ele>-8.51</ele>
        <time>2022-06-26T08:38:21Z</time>
      </trkpt>
      <trkpt lat="51.222672192379832" lon="4.624067908152938">
        <ele>-8.49</ele>
        <time>2022-06-26T08:38:37Z</time>
      </trkpt>
      <trkpt lat="51.222484018653631" lon="4.623842518776655">
        <ele>-8.460000000000001</ele>
        <time>2022-06-26T08:38:52Z</time>
      </trkpt>
      <trkpt lat="51.22238083742559" lon="4.623672952875495">
        <ele>-8.44</ele>
        <time>2022-06-26T08:39:02Z</time>
      </trkpt>
      <trkpt lat="51.222267346456647" lon="4.623372964560986">
        <ele>-8.41</ele>
        <time>2022-06-26T08:39:18Z</time>
      </trkpt>
      <trkpt lat="51.222213786095381" lon="4.623238267377019">
        <ele>-8.359999999999999</ele>
        <time>2022-06-26T08:39:34Z</time>
      </trkpt>
      <trkpt lat="51.222220156341791" lon="4.623264251276851">
        <ele>-8.26</ele>
        <time>2022-06-26T08:40:00Z</time>
      </trkpt>
      <trkpt lat="51.222210768610239" lon="4.623261233791709">
        <ele>-8.140000000000001</ele>
        <time>2022-06-26T08:40:26Z</time>
      </trkpt>
      <trkpt lat="51.22222057543695" lon="4.623278249055147">
        <ele>-8.02</ele>
        <time>2022-06-26T08:40:51Z</time>
      </trkpt>
      <trkpt lat="51.222218731418252" lon="4.62327397428453">
        <ele>-7.89</ele>
        <time>2022-06-26T08:41:18Z</time>
      </trkpt>
      <trkpt lat="51.22219760902226" lon="4.623263916000724">
        <ele>-7.74</ele>
        <time>2022-06-26T08:41:46Z</time>
      </trkpt>
      <trkpt lat="51.222129296511412" lon="4.622975327074528">
        <ele>-7.64</ele>
        <time>2022-06-26T08:42:03Z</time>
      </trkpt>
      <trkpt lat="51.222104569897056" lon="4.62283032014966">
        <ele>-7.6</ele>
        <time>2022-06-26T08:42:11Z</time>
      </trkpt>
      <trkpt lat="51.222047572955489" lon="4.622451541945338">
        <ele>-7.52</ele>
        <time>2022-06-26T08:42:30Z</time>
      </trkpt>
      <trkpt lat="51.222019828855991" lon="4.622185416519642">
        <ele>-7.41</ele>
        <time>2022-06-26T08:42:45Z</time>
      </trkpt>
      <trkpt lat="51.221913211047649" lon="4.621957344934344">
        <ele>-7.43</ele>
        <time>2022-06-26T08:43:07Z</time>
      </trkpt>
      <trkpt lat="51.221890579909086" lon="4.621520731598139">
        <ele>-7.5</ele>
        <time>2022-06-26T08:43:27Z</time>
      </trkpt>
      <trkpt lat="51.221828302368522" lon="4.621114376932383">
        <ele>-7.66</ele>
        <time>2022-06-26T08:43:48Z</time>
      </trkpt>
      <trkpt lat="51.221722606569529" lon="4.62069746106863">
        <ele>-7.81</ele>
        <time>2022-06-26T08:44:09Z</time>
      </trkpt>
      <trkpt lat="51.221653623506427" lon="4.620359251275659">
        <ele>-7.92</ele>
        <time>2022-06-26T08:44:20Z</time>
      </trkpt>
      <trkpt lat="51.221576509997249" lon="4.620077703148127">
        <ele>-8.050000000000001</ele>
        <time>2022-06-26T08:44:35Z</time>
      </trkpt>
      <trkpt lat="51.221504425629973" lon="4.620098993182182">
        <ele>-8.17</ele>
        <time>2022-06-26T08:44:50Z</time>
      </trkpt>
      <trkpt lat="51.221195803955197" lon="4.618599554523826">
        <ele>-8.310000000000001</ele>
        <time>2022-06-26T08:45:32Z</time>
      </trkpt>
      <trkpt lat="51.220925655215979" lon="4.618674572557211">
        <ele>-8.279999999999999</ele>
        <time>2022-06-26T08:45:50Z</time>
      </trkpt>
      <trkpt lat="51.220730859786272" lon="4.61874146014452">
        <ele>-8.23</ele>
        <time>2022-06-26T08:46:05Z</time>
      </trkpt>
      <trkpt lat="51.22068434022367" lon="4.618784794583917">
        <ele>-8.220000000000001</ele>
        <time>2022-06-26T08:46:09Z</time>
      </trkpt>
      <trkpt lat="51.220618290826678" lon="4.618800133466721">
        <ele>-8.220000000000001</ele>
        <time>2022-06-26T08:46:14Z</time>
      </trkpt>
      <trkpt lat="51.220388291403651" lon="4.618839863687754">
        <ele>-8.16</ele>
        <time>2022-06-26T08:46:30Z</time>
      </trkpt>
      <trkpt lat="51.220163740217686" lon="4.618848664686084">
        <ele>-8.119999999999999</ele>
        <time>2022-06-26T08:46:45Z</time>
      </trkpt>
      <trkpt lat="51.21999585069716" lon="4.618878671899438">
        <ele>-8.07</ele>
        <time>2022-06-26T08:46:58Z</time>
      </trkpt>
      <trkpt lat="51.2198297213763" lon="4.618929382413626">
        <ele>-7.99</ele>
        <time>2022-06-26T08:47:11Z</time>
      </trkpt>
      <trkpt lat="51.219742801040411" lon="4.618940446525812">
        <ele>-7.91</ele>
        <time>2022-06-26T08:47:26Z</time>
      </trkpt>
      <trkpt lat="51.219029165804386" lon="4.619047064334154">
        <ele>-7.66</ele>
        <time>2022-06-26T08:48:34Z</time>
      </trkpt>
      <trkpt lat="51.218777457252145" lon="4.619080172851682">
        <ele>-7.58</ele>
        <time>2022-06-26T08:48:50Z</time>
      </trkpt>
      <trkpt lat="51.21856614947319" lon="4.619103306904435">
        <ele>-7.55</ele>
        <time>2022-06-26T08:49:05Z</time>
      </trkpt>
      <trkpt lat="51.218475122004747" lon="4.619127195328474">
        <ele>-7.53</ele>
        <time>2022-06-26T08:49:13Z</time>
      </trkpt>
      <trkpt lat="51.216896558180451" lon="4.619245212525129">
        <ele>-7.11</ele>
        <time>2022-06-26T08:52:21Z</time>
      </trkpt>
      <trkpt lat="51.216444689780474" lon="4.617405887693167">
        <ele>-7.07</ele>
        <time>2022-06-26T08:52:30Z</time>
      </trkpt>
      <trkpt lat="51.216460866853595" lon="4.6168377622962">
        <ele>-7.89</ele>
        <time>2022-06-26T08:55:44Z</time>
      </trkpt>
      <trkpt lat="51.21638341806829" lon="4.616622850298882">
        <ele>-8.09</ele>
        <time>2022-06-26T08:55:59Z</time>
      </trkpt>
      <trkpt lat="51.216257773339748" lon="4.616115158423781">
        <ele>-8.449999999999999</ele>
        <time>2022-06-26T08:56:21Z</time>
      </trkpt>
      <trkpt lat="51.216203961521387" lon="4.615633198991418">
        <ele>-8.76</ele>
        <time>2022-06-26T08:56:42Z</time>
      </trkpt>
      <trkpt lat="51.216287948191166" lon="4.615214103832841">
        <ele>-9.08</ele>
        <time>2022-06-26T08:57:02Z</time>
      </trkpt>
      <trkpt lat="51.216320637613535" lon="4.615130703896284">
        <ele>-9.130000000000001</ele>
        <time>2022-06-26T08:57:05Z</time>
      </trkpt>
      <trkpt lat="51.216531107202172" lon="4.615150988101959">
        <ele>-9.35</ele>
        <time>2022-06-26T08:57:22Z</time>
      </trkpt>
      <trkpt lat="51.216923296451569" lon="4.615091476589441">
        <ele>-9.560000000000001</ele>
        <time>2022-06-26T08:57:41Z</time>
      </trkpt>
      <trkpt lat="51.217079870402813" lon="4.615042945370078">
        <ele>-9.65</ele>
        <time>2022-06-26T08:57:52Z</time>
      </trkpt>
      <trkpt lat="51.217215321958065" lon="4.615128943696618">
        <ele>-9.810000000000001</ele>
        <time>2022-06-26T08:58:12Z</time>
      </trkpt>
      <trkpt lat="51.217769281938672" lon="4.615331785753369">
        <ele>-10.039999999999999</ele>
        <time>2022-06-26T08:58:53Z</time>
      </trkpt>
      <trkpt lat="51.218422651290894" lon="4.615332707762718">
        <ele>-10.380000000000001</ele>
        <time>2022-06-26T08:59:31Z</time>
      </trkpt>
      <trkpt lat="51.218441175296903" lon="4.61533329449594">
        <ele>-10.380000000000001</ele>
        <time>2022-06-26T08:59:32Z</time>
      </trkpt>
      <trkpt lat="51.218532705679536" lon="4.615328013896942">
        <ele>-10.4</ele>
        <time>2022-06-26T08:59:37Z</time>
      </trkpt>
      <trkpt lat="51.218592803925276" lon="4.615252576768398">
        <ele>-10.41</ele>
        <time>2022-06-26T08:59:43Z</time>
      </trkpt>
      <trkpt lat="51.218601018190384" lon="4.615240087732673">
        <ele>-10.41</ele>
        <time>2022-06-26T08:59:44Z</time>
      </trkpt>
      <trkpt lat="51.2186174467206" lon="4.6152472961694">
        <ele>-10.41</ele>
        <time>2022-06-26T08:59:45Z</time>
      </trkpt>
      <trkpt lat="51.218791203573346" lon="4.6152438595891">
        <ele>-10.4</ele>
        <time>2022-06-26T08:59:56Z</time>
      </trkpt>
      <trkpt lat="51.218805955722928" lon="4.615244111046195">
        <ele>-10.4</ele>
        <time>2022-06-26T08:59:57Z</time>
      </trkpt>
      <trkpt lat="51.218820037320256" lon="4.615248385816813">
        <ele>-10.4</ele>
        <time>2022-06-26T08:59:58Z</time>
      </trkpt>
      <trkpt lat="51.218832274898887" lon="4.615252241492271">
        <ele>-10.4</ele>
        <time>2022-06-26T08:59:59Z</time>
      </trkpt>
      <trkpt lat="51.218846272677183" lon="4.615255761891604">
        <ele>-10.4</ele>
        <time>2022-06-26T09:00:00Z</time>
      </trkpt>
      <trkpt lat="51.219028159976006" lon="4.615223072469235">
        <ele>-10.369999999999999</ele>
        <time>2022-06-26T09:00:15Z</time>
      </trkpt>
      <trkpt lat="51.219209125265479" lon="4.615278812125325">
        <ele>-10.300000000000001</ele>
        <time>2022-06-26T09:00:28Z</time>
      </trkpt>
      <trkpt lat="51.21923997066915" lon="4.615287864580751">
        <ele>-10.289999999999999</ele>
        <time>2022-06-26T09:00:30Z</time>
      </trkpt>
      <trkpt lat="51.219254806637764" lon="4.615290462970734">
        <ele>-10.279999999999999</ele>
        <time>2022-06-26T09:00:31Z</time>
      </trkpt>
      <trkpt lat="51.219269307330251" lon="4.615295073017478">
        <ele>-10.26</ele>
        <time>2022-06-26T09:00:32Z</time>
      </trkpt>
      <trkpt lat="51.219282886013389" lon="4.615298341959715">
        <ele>-10.26</ele>
        <time>2022-06-26T09:00:33Z</time>
      </trkpt>
      <trkpt lat="51.219301158562303" lon="4.615302616730332">
        <ele>-10.25</ele>
        <time>2022-06-26T09:00:34Z</time>
      </trkpt>
      <trkpt lat="51.219320604577661" lon="4.615308986976743">
        <ele>-10.24</ele>
        <time>2022-06-26T09:00:35Z</time>
      </trkpt>
      <trkpt lat="51.219338541850448" lon="4.615311333909631">
        <ele>-10.24</ele>
        <time>2022-06-26T09:00:36Z</time>
      </trkpt>
      <trkpt lat="51.219355640932918" lon="4.615310914814472">
        <ele>-10.24</ele>
        <time>2022-06-26T09:00:37Z</time>
      </trkpt>
      <trkpt lat="51.2193703930825" lon="4.615312172099948">
        <ele>-10.23</ele>
        <time>2022-06-26T09:00:38Z</time>
      </trkpt>
      <trkpt lat="51.219385983422399" lon="4.615315524861217">
        <ele>-10.220000000000001</ele>
        <time>2022-06-26T09:00:39Z</time>
      </trkpt>
      <trkpt lat="51.219502156600356" lon="4.615329271182418">
        <ele>-10.109999999999999</ele>
        <time>2022-06-26T09:00:52Z</time>
      </trkpt>
      <trkpt lat="51.219593770802021" lon="4.615311753004789">
        <ele>-9.99</ele>
        <time>2022-06-26T09:01:07Z</time>
      </trkpt>
      <trkpt lat="51.219786051660776" lon="4.615274872630835">
        <ele>-9.9</ele>
        <time>2022-06-26T09:01:21Z</time>
      </trkpt>
      <trkpt lat="51.219999538734555" lon="4.615196669474244">
        <ele>-9.779999999999999</ele>
        <time>2022-06-26T09:01:37Z</time>
      </trkpt>
      <trkpt lat="51.220193831250072" lon="4.615118131041527">
        <ele>-9.69</ele>
        <time>2022-06-26T09:01:51Z</time>
      </trkpt>
      <trkpt lat="51.220381250604987" lon="4.615033809095621">
        <ele>-9.59</ele>
        <time>2022-06-26T09:02:04Z</time>
      </trkpt>
      <trkpt lat="51.220570094883442" lon="4.61493507027626">
        <ele>-9.48</ele>
        <time>2022-06-26T09:02:18Z</time>
      </trkpt>
      <trkpt lat="51.220774948596954" lon="4.614863321185112">
        <ele>-11.76</ele>
        <time>2022-06-26T09:02:31Z</time>
      </trkpt>
      <trkpt lat="51.220962954685092" lon="4.614795511588454">
        <ele>-11.67</ele>
        <time>2022-06-26T09:02:44Z</time>
      </trkpt>
      <trkpt lat="51.221177531406283" lon="4.614768940955401">
        <ele>-11.56</ele>
        <time>2022-06-26T09:02:59Z</time>
      </trkpt>
      <trkpt lat="51.221190271899104" lon="4.614756954833865">
        <ele>-11.550000000000001</ele>
        <time>2022-06-26T09:03:00Z</time>
      </trkpt>
      <trkpt lat="51.221325639635324" lon="4.614673471078277">
        <ele>-11.470000000000001</ele>
        <time>2022-06-26T09:03:12Z</time>
      </trkpt>
      <trkpt lat="51.221473831683397" lon="4.614582443609834">
        <ele>-11.41</ele>
        <time>2022-06-26T09:03:26Z</time>
      </trkpt>
      <trkpt lat="51.221630908548832" lon="4.61449921131134">
        <ele>-11.4</ele>
        <time>2022-06-26T09:03:41Z</time>
      </trkpt>
      <trkpt lat="51.221714140847325" lon="4.614500552415848">
        <ele>-11.4</ele>
        <time>2022-06-26T09:03:46Z</time>
      </trkpt>
      <trkpt lat="51.222018403932452" lon="4.614489488303661">
        <ele>-11.48</ele>
        <time>2022-06-26T09:04:04Z</time>
      </trkpt>
      <trkpt lat="51.222220659255981" lon="4.614571547135711">
        <ele>-11.609999999999999</ele>
        <time>2022-06-26T09:04:24Z</time>
      </trkpt>
      <trkpt lat="51.22240774333477" lon="4.614712614566088">
        <ele>-11.710000000000001</ele>
        <time>2022-06-26T09:04:41Z</time>
      </trkpt>
      <trkpt lat="51.222601030021906" lon="4.614720661193132">
        <ele>-11.82</ele>
        <time>2022-06-26T09:04:57Z</time>
      </trkpt>
      <trkpt lat="51.222694991156459" lon="4.614824345335364">
        <ele>-11.890000000000001</ele>
        <time>2022-06-26T09:05:05Z</time>
      </trkpt>
      <trkpt lat="51.222818372771144" lon="4.614926939830184">
        <ele>-11.99</ele>
        <time>2022-06-26T09:05:19Z</time>
      </trkpt>
      <trkpt lat="51.222929684445262" lon="4.615095499902964">
        <ele>-12.130000000000001</ele>
        <time>2022-06-26T09:05:39Z</time>
      </trkpt>
      <trkpt lat="51.222995733842254" lon="4.615406971424818">
        <ele>-12.25</ele>
        <time>2022-06-26T09:05:58Z</time>
      </trkpt>
      <trkpt lat="51.223084833472967" lon="4.615736296400428">
        <ele>-12.4</ele>
        <time>2022-06-26T09:06:19Z</time>
      </trkpt>
      <trkpt lat="51.223210645839572" lon="4.61623527109623">
        <ele>-12.58</ele>
        <time>2022-06-26T09:06:41Z</time>
      </trkpt>
      <trkpt lat="51.223277868703008" lon="4.616491086781025">
        <ele>-12.66</ele>
        <time>2022-06-26T09:06:49Z</time>
      </trkpt>
      <trkpt lat="51.223411140963435" lon="4.616774059832096">
        <ele>-12.76</ele>
        <time>2022-06-26T09:07:00Z</time>
      </trkpt>
      <trkpt lat="51.223576935008168" lon="4.6169188991189">
        <ele>-12.880000000000001</ele>
        <time>2022-06-26T09:07:14Z</time>
      </trkpt>
      <trkpt lat="51.223725462332368" lon="4.617003807798028">
        <ele>-13.02</ele>
        <time>2022-06-26T09:07:33Z</time>
      </trkpt>
      <trkpt lat="51.223995443433523" lon="4.616884533315897">
        <ele>-13.119999999999999</ele>
        <time>2022-06-26T09:07:53Z</time>
      </trkpt>
      <trkpt lat="51.224092254415154" lon="4.616832984611392">
        <ele>-13.140000000000001</ele>
        <time>2022-06-26T09:08:00Z</time>
      </trkpt>
      <trkpt lat="51.224301801994443" lon="4.616687390953302">
        <ele>-13.18</ele>
        <time>2022-06-26T09:08:16Z</time>
      </trkpt>
      <trkpt lat="51.224467763677239" lon="4.616579851135612">
        <ele>-13.18</ele>
        <time>2022-06-26T09:08:32Z</time>
      </trkpt>
      <trkpt lat="51.224695583805442" lon="4.616427468135953">
        <ele>-14.06</ele>
        <time>2022-06-26T09:08:51Z</time>
      </trkpt>
      <trkpt lat="51.224772781133652" lon="4.616431491449475">
        <ele>-14.050000000000001</ele>
        <time>2022-06-26T09:08:58Z</time>
      </trkpt>
      <trkpt lat="51.225021975114942" lon="4.616317497566342">
        <ele>-14.029999999999999</ele>
        <time>2022-06-26T09:09:13Z</time>
      </trkpt>
      <trkpt lat="51.225250046700239" lon="4.616243904456496">
        <ele>-13.98</ele>
        <time>2022-06-26T09:09:30Z</time>
      </trkpt>
      <trkpt lat="51.225358424708247" lon="4.616253962740302">
        <ele>-13.949999999999999</ele>
        <time>2022-06-26T09:09:38Z</time>
      </trkpt>
      <trkpt lat="51.225504605099559" lon="4.616246251389384">
        <ele>-13.92</ele>
        <time>2022-06-26T09:09:46Z</time>
      </trkpt>
      <trkpt lat="51.225693197920918" lon="4.616211466491222">
        <ele>-13.84</ele>
        <time>2022-06-26T09:09:59Z</time>
      </trkpt>
      <trkpt lat="51.225732676684856" lon="4.61621574126184">
        <ele>-13.82</ele>
        <time>2022-06-26T09:10:02Z</time>
      </trkpt>
      <trkpt lat="51.225998383015394" lon="4.616104094311595">
        <ele>-13.73</ele>
        <time>2022-06-26T09:10:16Z</time>
      </trkpt>
      <trkpt lat="51.226158058270812" lon="4.616060173138976">
        <ele>-13.630000000000001</ele>
        <time>2022-06-26T09:10:30Z</time>
      </trkpt>
      <trkpt lat="51.2263866327703" lon="4.615998649969697">
        <ele>-13.460000000000001</ele>
        <time>2022-06-26T09:10:48Z</time>
      </trkpt>
      <trkpt lat="51.226496184244752" lon="4.615930421277881">
        <ele>-13.42</ele>
        <time>2022-06-26T09:10:54Z</time>
      </trkpt>
      <trkpt lat="51.226591570302844" lon="4.615714503452182">
        <ele>-13.32</ele>
        <time>2022-06-26T09:11:07Z</time>
      </trkpt>
      <trkpt lat="51.226614285260439" lon="4.615670330822468">
        <ele>-13.300000000000001</ele>
        <time>2022-06-26T09:11:10Z</time>
      </trkpt>
      <trkpt lat="51.22665929608047" lon="4.615557258948684">
        <ele>-13.25</ele>
        <time>2022-06-26T09:11:16Z</time>
      </trkpt>
      <trkpt lat="51.226699529215693" lon="4.615346202626824">
        <ele>-13.16</ele>
        <time>2022-06-26T09:11:28Z</time>
      </trkpt>
      <trkpt lat="51.226717215031385" lon="4.615045543760061">
        <ele>-13.02</ele>
        <time>2022-06-26T09:11:46Z</time>
      </trkpt>
      <trkpt lat="51.226792484521866" lon="4.614659054204822">
        <ele>-12.9</ele>
        <time>2022-06-26T09:12:08Z</time>
      </trkpt>
      <trkpt lat="51.226819474250078" lon="4.614509856328368">
        <ele>-12.91</ele>
        <time>2022-06-26T09:12:13Z</time>
      </trkpt>
      <trkpt lat="51.226777816191316" lon="4.61411951109767">
        <ele>-12.869999999999999</ele>
        <time>2022-06-26T09:12:25Z</time>
      </trkpt>
      <trkpt lat="51.226793993264437" lon="4.613830000162125">
        <ele>-12.869999999999999</ele>
        <time>2022-06-26T09:12:42Z</time>
      </trkpt>
      <trkpt lat="51.226804135367274" lon="4.61355029605329">
        <ele>-12.92</ele>
        <time>2022-06-26T09:13:02Z</time>
      </trkpt>
      <trkpt lat="51.22678485698998" lon="4.613186353817582">
        <ele>-12.970000000000001</ele>
        <time>2022-06-26T09:13:18Z</time>
      </trkpt>
      <trkpt lat="51.226841267198324" lon="4.61305433884263">
        <ele>-12.99</ele>
        <time>2022-06-26T09:13:24Z</time>
      </trkpt>
      <trkpt lat="51.226895665749907" lon="4.613032462075353">
        <ele>-13.02</ele>
        <time>2022-06-26T09:13:28Z</time>
      </trkpt>
      <trkpt lat="51.226971605792642" lon="4.612985691055656">
        <ele>-13.039999999999999</ele>
        <time>2022-06-26T09:13:34Z</time>
      </trkpt>
      <trkpt lat="51.227014688774943" lon="4.61298250593245">
        <ele>-13.06</ele>
        <time>2022-06-26T09:13:37Z</time>
      </trkpt>
      <trkpt lat="51.227076631039381" lon="4.612965155392885">
        <ele>-13.09</ele>
        <time>2022-06-26T09:13:42Z</time>
      </trkpt>
      <trkpt lat="51.227223565801978" lon="4.612946631386876">
        <ele>-13.140000000000001</ele>
        <time>2022-06-26T09:13:51Z</time>
      </trkpt>
      <trkpt lat="51.227240497246385" lon="4.6129419375211">
        <ele>-13.15</ele>
        <time>2022-06-26T09:13:52Z</time>
      </trkpt>
      <trkpt lat="51.227255500853062" lon="4.612934309989214">
        <ele>-13.16</ele>
        <time>2022-06-26T09:13:53Z</time>
      </trkpt>
      <trkpt lat="51.227274779230356" lon="4.612931292504072">
        <ele>-13.17</ele>
        <time>2022-06-26T09:13:54Z</time>
      </trkpt>
      <trkpt lat="51.227295817807317" lon="4.612936321645975">
        <ele>-13.17</ele>
        <time>2022-06-26T09:13:55Z</time>
      </trkpt>
      <trkpt lat="51.227311575785279" lon="4.612942356616259">
        <ele>-13.18</ele>
        <time>2022-06-26T09:13:56Z</time>
      </trkpt>
      <trkpt lat="51.227325741201639" lon="4.612942021340132">
        <ele>-13.199999999999999</ele>
        <time>2022-06-26T09:13:57Z</time>
      </trkpt>
      <trkpt lat="51.227341331541538" lon="4.6129385009408">
        <ele>-13.199999999999999</ele>
        <time>2022-06-26T09:13:58Z</time>
      </trkpt>
      <trkpt lat="51.227357760071754" lon="4.612941266968846">
        <ele>-13.210000000000001</ele>
        <time>2022-06-26T09:13:59Z</time>
      </trkpt>
      <trkpt lat="51.227374775335193" lon="4.612949481233954">
        <ele>-13.220000000000001</ele>
        <time>2022-06-26T09:14:00Z</time>
      </trkpt>
      <trkpt lat="51.227400340139866" lon="4.6129644010216">
        <ele>-13.23</ele>
        <time>2022-06-26T09:14:01Z</time>
      </trkpt>
      <trkpt lat="51.229562116786838" lon="4.612344726920128">
        <ele>-14.73</ele>
        <time>2022-06-26T09:15:32Z</time>
      </trkpt>
      <trkpt lat="51.229722211137414" lon="4.612226625904441">
        <ele>-14.800000000000001</ele>
        <time>2022-06-26T09:15:45Z</time>
      </trkpt>
      <trkpt lat="51.229898314923048" lon="4.612167784944177">
        <ele>-14.880000000000001</ele>
        <time>2022-06-26T09:16:01Z</time>
      </trkpt>
      <trkpt lat="51.230029156431556" lon="4.612162420526147">
        <ele>-14.9</ele>
        <time>2022-06-26T09:16:15Z</time>
      </trkpt>
      <trkpt lat="51.230158908292651" lon="4.61211372166872">
        <ele>-14.949999999999999</ele>
        <time>2022-06-26T09:16:25Z</time>
      </trkpt>
      <trkpt lat="51.230437438935041" lon="4.61189478635788">
        <ele>-14.94</ele>
        <time>2022-06-26T09:16:41Z</time>
      </trkpt>
      <trkpt lat="51.230556881055236" lon="4.611810212954879">
        <ele>-14.83</ele>
        <time>2022-06-26T09:17:05Z</time>
      </trkpt>
      <trkpt lat="51.230662995949388" lon="4.611751791089773">
        <ele>-14.710000000000001</ele>
        <time>2022-06-26T09:17:24Z</time>
      </trkpt>
      <trkpt lat="51.230689147487283" lon="4.611742068082094">
        <ele>-14.710000000000001</ele>
        <time>2022-06-26T09:17:26Z</time>
      </trkpt>
      <trkpt lat="51.230704067274928" lon="4.611740978434682">
        <ele>-14.699999999999999</ele>
        <time>2022-06-26T09:17:27Z</time>
      </trkpt>
      <trkpt lat="51.230719070881605" lon="4.611732680350542">
        <ele>-14.710000000000001</ele>
        <time>2022-06-26T09:17:28Z</time>
      </trkpt>
      <trkpt lat="51.230854941532016" lon="4.611687585711479">
        <ele>-14.58</ele>
        <time>2022-06-26T09:17:39Z</time>
      </trkpt>
      <trkpt lat="51.230995422229171" lon="4.611667469143868">
        <ele>-14.52</ele>
        <time>2022-06-26T09:17:50Z</time>
      </trkpt>
      <trkpt lat="51.231117630377412" lon="4.611651627346873">
        <ele>-14.43</ele>
        <time>2022-06-26T09:18:03Z</time>
      </trkpt>
      <trkpt lat="51.231149733066559" lon="4.611632600426674">
        <ele>-14.41</ele>
        <time>2022-06-26T09:18:06Z</time>
      </trkpt>
      <trkpt lat="51.231159707531333" lon="4.611619943752885">
        <ele>-14.4</ele>
        <time>2022-06-26T09:18:07Z</time>
      </trkpt>
      <trkpt lat="51.231169681996107" lon="4.611609298735857">
        <ele>-14.390000000000001</ele>
        <time>2022-06-26T09:18:08Z</time>
      </trkpt>
      <trkpt lat="51.231259116902947" lon="4.611339066177607">
        <ele>-14.27</ele>
        <time>2022-06-26T09:18:28Z</time>
      </trkpt>
      <trkpt lat="51.231305636465549" lon="4.611138990148902">
        <ele>-14.199999999999999</ele>
        <time>2022-06-26T09:18:38Z</time>
      </trkpt>
      <trkpt lat="51.231340421363711" lon="4.610996330156922">
        <ele>-14.15</ele>
        <time>2022-06-26T09:18:47Z</time>
      </trkpt>
      <trkpt lat="51.231440836563706" lon="4.610752249136567">
        <ele>-14.15</ele>
        <time>2022-06-26T09:19:02Z</time>
      </trkpt>
      <trkpt lat="51.231541838496923" lon="4.610661473125219">
        <ele>-11.69</ele>
        <time>2022-06-26T09:19:08Z</time>
      </trkpt>
      <trkpt lat="51.231555417180061" lon="4.610650157555938">
        <ele>-11.699999999999999</ele>
        <time>2022-06-26T09:19:09Z</time>
      </trkpt>
      <trkpt lat="51.231565978378057" lon="4.610633226111531">
        <ele>-14.94</ele>
        <time>2022-06-26T09:19:11Z</time>
      </trkpt>
      <trkpt lat="51.231652814894915" lon="4.610464163124561">
        <ele>-11.699999999999999</ele>
        <time>2022-06-26T09:19:22Z</time>
      </trkpt>
      <trkpt lat="51.231677792966366" lon="4.610315635800362">
        <ele>-11.699999999999999</ele>
        <time>2022-06-26T09:19:27Z</time>
      </trkpt>
      <trkpt lat="51.231963951140642" lon="4.609525641426444">
        <ele>-11.74</ele>
        <time>2022-06-26T09:20:07Z</time>
      </trkpt>
      <trkpt lat="51.232049195095897" lon="4.609107971191406">
        <ele>-11.73</ele>
        <time>2022-06-26T09:20:25Z</time>
      </trkpt>
      <trkpt lat="51.232066294178367" lon="4.608854753896594">
        <ele>-11.73</ele>
        <time>2022-06-26T09:20:35Z</time>
      </trkpt>
      <trkpt lat="51.232074592262506" lon="4.608826842159033">
        <ele>-11.73</ele>
        <time>2022-06-26T09:20:36Z</time>
      </trkpt>
      <trkpt lat="51.23207425698638" lon="4.608799768611789">
        <ele>-11.73</ele>
        <time>2022-06-26T09:20:37Z</time>
      </trkpt>
      <trkpt lat="51.232074424624443" lon="4.608779819682241">
        <ele>-11.73</ele>
        <time>2022-06-26T09:20:38Z</time>
      </trkpt>
      <trkpt lat="51.232073334977031" lon="4.608696838840842">
        <ele>-11.720000000000001</ele>
        <time>2022-06-26T09:20:42Z</time>
      </trkpt>
      <trkpt lat="51.232076771557331" lon="4.608669597655535">
        <ele>-11.710000000000001</ele>
        <time>2022-06-26T09:20:43Z</time>
      </trkpt>
      <trkpt lat="51.232080711051822" lon="4.608649900183082">
        <ele>-11.710000000000001</ele>
        <time>2022-06-26T09:20:44Z</time>
      </trkpt>
      <trkpt lat="51.23208842240274" lon="4.608628442510963">
        <ele>-11.710000000000001</ele>
        <time>2022-06-26T09:20:45Z</time>
      </trkpt>
      <trkpt lat="51.232199482619762" lon="4.608359886333346">
        <ele>-11.68</ele>
        <time>2022-06-26T09:20:58Z</time>
      </trkpt>
      <trkpt lat="51.232290090993047" lon="4.608090994879603">
        <ele>-11.699999999999999</ele>
        <time>2022-06-26T09:21:13Z</time>
      </trkpt>
      <trkpt lat="51.232295371592045" lon="4.60806492716074">
        <ele>-11.69</ele>
        <time>2022-06-26T09:21:14Z</time>
      </trkpt>
      <trkpt lat="51.232371227815747" lon="4.607579363510013">
        <ele>-11.74</ele>
        <time>2022-06-26T09:21:34Z</time>
      </trkpt>
      <trkpt lat="51.232451274991035" lon="4.607237633317709">
        <ele>-11.84</ele>
        <time>2022-06-26T09:21:53Z</time>
      </trkpt>
      <trkpt lat="51.232618158683181" lon="4.60658929310739">
        <ele>-12.17</ele>
        <time>2022-06-26T09:22:29Z</time>
      </trkpt>
      <trkpt lat="51.232460243627429" lon="4.606297435238957">
        <ele>-12.49</ele>
        <time>2022-06-26T09:22:52Z</time>
      </trkpt>
      <trkpt lat="51.232426296919584" lon="4.606179753318429">
        <ele>-12.56</ele>
        <time>2022-06-26T09:22:57Z</time>
      </trkpt>
      <trkpt lat="51.232178527861834" lon="4.605882279574871">
        <ele>-12.77</ele>
        <time>2022-06-26T09:23:16Z</time>
      </trkpt>
      <trkpt lat="51.231947857886553" lon="4.60550987161696">
        <ele>-13.119999999999999</ele>
        <time>2022-06-26T09:23:38Z</time>
      </trkpt>
      <trkpt lat="51.231939056888223" lon="4.605497717857361">
        <ele>-13.130000000000001</ele>
        <time>2022-06-26T09:23:39Z</time>
      </trkpt>
      <trkpt lat="51.231870325282216" lon="4.605439966544509">
        <ele>-13.210000000000001</ele>
        <time>2022-06-26T09:23:46Z</time>
      </trkpt>
      <trkpt lat="51.231816094368696" lon="4.605418257415295">
        <ele>-13.27</ele>
        <time>2022-06-26T09:23:51Z</time>
      </trkpt>
      <trkpt lat="51.231699166819453" lon="4.605299653485417">
        <ele>-13.380000000000001</ele>
        <time>2022-06-26T09:23:59Z</time>
      </trkpt>
      <trkpt lat="51.231621215119958" lon="4.605126734822989">
        <ele>-13.539999999999999</ele>
        <time>2022-06-26T09:24:10Z</time>
      </trkpt>
      <trkpt lat="51.231586514040828" lon="4.604981811717153">
        <ele>-13.77</ele>
        <time>2022-06-26T09:24:25Z</time>
      </trkpt>
      <trkpt lat="51.231849119067192" lon="4.60457369685173">
        <ele>-14.109999999999999</ele>
        <time>2022-06-26T09:24:46Z</time>
      </trkpt>
      <trkpt lat="51.232081800699234" lon="4.604277648031712">
        <ele>-14.300000000000001</ele>
        <time>2022-06-26T09:24:57Z</time>
      </trkpt>
      <trkpt lat="51.232099989429116" lon="4.604255184531212">
        <ele>-14.31</ele>
        <time>2022-06-26T09:24:58Z</time>
      </trkpt>
      <trkpt lat="51.232110718265176" lon="4.604247556999326">
        <ele>-14.32</ele>
        <time>2022-06-26T09:24:59Z</time>
      </trkpt>
      <trkpt lat="51.232238626107574" lon="4.604076147079468">
        <ele>-14.470000000000001</ele>
        <time>2022-06-26T09:25:09Z</time>
      </trkpt>
      <trkpt lat="51.232363684102893" lon="4.603954190388322">
        <ele>-14.630000000000001</ele>
        <time>2022-06-26T09:25:18Z</time>
      </trkpt>
      <trkpt lat="51.232498800382018" lon="4.603751432150602">
        <ele>-14.81</ele>
        <time>2022-06-26T09:25:33Z</time>
      </trkpt>
      <trkpt lat="51.232502488419414" lon="4.603727208450437">
        <ele>-14.82</ele>
        <time>2022-06-26T09:25:34Z</time>
      </trkpt>
      <trkpt lat="51.232704240828753" lon="4.603614723309875">
        <ele>-15.039999999999999</ele>
        <time>2022-06-26T09:25:53Z</time>
      </trkpt>
      <trkpt lat="51.23290054500103" lon="4.603403834626079">
        <ele>-15.23</ele>
        <time>2022-06-26T09:26:10Z</time>
      </trkpt>
      <trkpt lat="51.232927534729242" lon="4.603331163525581">
        <ele>-15.289999999999999</ele>
        <time>2022-06-26T09:26:18Z</time>
      </trkpt>
      <trkpt lat="51.232987381517887" lon="4.603287493810058">
        <ele>-15.34</ele>
        <time>2022-06-26T09:26:22Z</time>
      </trkpt>
      <trkpt lat="51.232981011271477" lon="4.603273244574666">
        <ele>-15.35</ele>
        <time>2022-06-26T09:26:24Z</time>
      </trkpt>
      <trkpt lat="51.233105901628733" lon="4.603084651753306">
        <ele>-15.57</ele>
        <time>2022-06-26T09:26:45Z</time>
      </trkpt>
      <trkpt lat="51.233184104785323" lon="4.602910643443465">
        <ele>-15.789999999999999</ele>
        <time>2022-06-26T09:27:04Z</time>
      </trkpt>
      <trkpt lat="51.233517285436392" lon="4.60270319133997">
        <ele>-15.99</ele>
        <time>2022-06-26T09:27:21Z</time>
      </trkpt>
      <trkpt lat="51.233691796660423" lon="4.602556088939309">
        <ele>-16.02</ele>
        <time>2022-06-26T09:27:23Z</time>
      </trkpt>
      <trkpt lat="51.233333051204681" lon="4.602147722616792">
        <ele>-16.309999999999999</ele>
        <time>2022-06-26T09:27:46Z</time>
      </trkpt>
      <trkpt lat="51.233278149738908" lon="4.602085445076227">
        <ele>-16.34</ele>
        <time>2022-06-26T09:27:51Z</time>
      </trkpt>
      <trkpt lat="51.233184356242418" lon="4.601978240534663">
        <ele>-16.420000000000002</ele>
        <time>2022-06-26T09:28:05Z</time>
      </trkpt>
      <trkpt lat="51.233101459220052" lon="4.601934151723981">
        <ele>-16.469999999999999</ele>
        <time>2022-06-26T09:28:13Z</time>
      </trkpt>
      <trkpt lat="51.232792669907212" lon="4.601535424590111">
        <ele>-16.550000000000001</ele>
        <time>2022-06-26T09:28:36Z</time>
      </trkpt>
      <trkpt lat="51.232566693797708" lon="4.601354626938701">
        <ele>-16.57</ele>
        <time>2022-06-26T09:28:58Z</time>
      </trkpt>
      <trkpt lat="51.232443982735276" lon="4.601215990260243">
        <ele>-16.57</ele>
        <time>2022-06-26T09:29:11Z</time>
      </trkpt>
      <trkpt lat="51.232401486486197" lon="4.601197382435203">
        <ele>-16.59</ele>
        <time>2022-06-26T09:29:16Z</time>
      </trkpt>
      <trkpt lat="51.232348596677184" lon="4.601163771003485">
        <ele>-16.57</ele>
        <time>2022-06-26T09:29:22Z</time>
      </trkpt>
      <trkpt lat="51.232253545895219" lon="4.601096212863922">
        <ele>-16.57</ele>
        <time>2022-06-26T09:29:32Z</time>
      </trkpt>
      <trkpt lat="51.232214402407408" lon="4.601062852889299">
        <ele>-16.559999999999999</ele>
        <time>2022-06-26T09:29:37Z</time>
      </trkpt>
      <trkpt lat="51.232157573103905" lon="4.601029409095645">
        <ele>-16.550000000000001</ele>
        <time>2022-06-26T09:29:45Z</time>
      </trkpt>
      <trkpt lat="51.232134690508246" lon="4.600941147655249">
        <ele>-16.539999999999999</ele>
        <time>2022-06-26T09:29:48Z</time>
      </trkpt>
      <trkpt lat="51.231851046904922" lon="4.600619366392493">
        <ele>-16.489999999999998</ele>
        <time>2022-06-26T09:30:09Z</time>
      </trkpt>
      <trkpt lat="51.231556758284569" lon="4.600197337567806">
        <ele>-16.469999999999999</ele>
        <time>2022-06-26T09:30:25Z</time>
      </trkpt>
      <trkpt lat="51.231651725247502" lon="4.599614040926099">
        <ele>-16.539999999999999</ele>
        <time>2022-06-26T09:30:46Z</time>
      </trkpt>
      <trkpt lat="51.231628926470876" lon="4.59912646561861">
        <ele>-16.649999999999999</ele>
        <time>2022-06-26T09:31:03Z</time>
      </trkpt>
      <trkpt lat="51.23171609826386" lon="4.598599411547184">
        <ele>-16.75</ele>
        <time>2022-06-26T09:31:22Z</time>
      </trkpt>
      <trkpt lat="51.231702184304595" lon="4.598253238946199">
        <ele>-16.879999999999999</ele>
        <time>2022-06-26T09:31:39Z</time>
      </trkpt>
      <trkpt lat="51.231764545664191" lon="4.59820537827909">
        <ele>-16.960000000000001</ele>
        <time>2022-06-26T09:31:49Z</time>
      </trkpt>
      <trkpt lat="51.231781058013439" lon="4.598183752968907">
        <ele>-16.98</ele>
        <time>2022-06-26T09:31:53Z</time>
      </trkpt>
      <trkpt lat="51.231963532045484" lon="4.598363377153873">
        <ele>-17.109999999999999</ele>
        <time>2022-06-26T09:32:08Z</time>
      </trkpt>
      <trkpt lat="51.232115244492888" lon="4.598407298326492">
        <ele>-17.219999999999999</ele>
        <time>2022-06-26T09:32:18Z</time>
      </trkpt>
      <trkpt lat="51.232312805950642" lon="4.598657330498099">
        <ele>-17.399999999999999</ele>
        <time>2022-06-26T09:32:35Z</time>
      </trkpt>
      <trkpt lat="51.232506260275841" lon="4.598788507282734">
        <ele>-17.600000000000001</ele>
        <time>2022-06-26T09:32:50Z</time>
      </trkpt>
      <trkpt lat="51.232581445947289" lon="4.598877271637321">
        <ele>-17.73</ele>
        <time>2022-06-26T09:32:59Z</time>
      </trkpt>
      <trkpt lat="51.232837345451117" lon="4.599046250805259">
        <ele>-18.059999999999999</ele>
        <time>2022-06-26T09:33:23Z</time>
      </trkpt>
      <trkpt lat="51.233066422864795" lon="4.599340539425612">
        <ele>-18.329999999999998</ele>
        <time>2022-06-26T09:33:44Z</time>
      </trkpt>
      <trkpt lat="51.233263229951262" lon="4.599518906325102">
        <ele>-18.579999999999998</ele>
        <time>2022-06-26T09:34:03Z</time>
      </trkpt>
      <trkpt lat="51.233448134735227" lon="4.599672127515078">
        <ele>-18.780000000000001</ele>
        <time>2022-06-26T09:34:18Z</time>
      </trkpt>
      <trkpt lat="51.233587944880128" lon="4.599909503012896">
        <ele>-18.98</ele>
        <time>2022-06-26T09:34:32Z</time>
      </trkpt>
      <trkpt lat="51.233731862157583" lon="4.600041098892689">
        <ele>-19.18</ele>
        <time>2022-06-26T09:34:45Z</time>
      </trkpt>
      <trkpt lat="51.233850717544556" lon="4.600202953442931">
        <ele>-19.329999999999998</ele>
        <time>2022-06-26T09:34:55Z</time>
      </trkpt>
      <trkpt lat="51.234022211283445" lon="4.600355420261622">
        <ele>-19.550000000000001</ele>
        <time>2022-06-26T09:35:10Z</time>
      </trkpt>
      <trkpt lat="51.234107203781605" lon="4.600421469658613">
        <ele>-19.670000000000002</ele>
        <time>2022-06-26T09:35:18Z</time>
      </trkpt>
      <trkpt lat="51.234217928722501" lon="4.600668400526047">
        <ele>-19.91</ele>
        <time>2022-06-26T09:35:34Z</time>
      </trkpt>
      <trkpt lat="51.234456477686763" lon="4.600770324468613">
        <ele>-19.949999999999999</ele>
        <time>2022-06-26T09:35:37Z</time>
      </trkpt>
      <trkpt lat="51.234450442716479" lon="4.60054786875844">
        <ele>-20.23</ele>
        <time>2022-06-26T09:35:56Z</time>
      </trkpt>
      <trkpt lat="51.234491765499115" lon="4.600451812148094">
        <ele>-20.329999999999998</ele>
        <time>2022-06-26T09:36:03Z</time>
      </trkpt>
      <trkpt lat="51.234498471021652" lon="4.600246623158455">
        <ele>-20.460000000000001</ele>
        <time>2022-06-26T09:36:15Z</time>
      </trkpt>
      <trkpt lat="51.234535602852702" lon="4.598982213065028">
        <ele>-23.52</ele>
        <time>2022-06-26T09:37:04Z</time>
      </trkpt>
      <trkpt lat="51.234527640044689" lon="4.598734695464373">
        <ele>-23.600000000000001</ele>
        <time>2022-06-26T09:37:17Z</time>
      </trkpt>
      <trkpt lat="51.234566029161215" lon="4.598368322476745">
        <ele>-23.66</ele>
        <time>2022-06-26T09:37:30Z</time>
      </trkpt>
      <trkpt lat="51.23461271636188" lon="4.598065987229347">
        <ele>-23.699999999999999</ele>
        <time>2022-06-26T09:37:43Z</time>
      </trkpt>
      <trkpt lat="51.234660325571895" lon="4.597926177084446">
        <ele>-23.739999999999998</ele>
        <time>2022-06-26T09:37:48Z</time>
      </trkpt>
      <trkpt lat="51.23470114544034" lon="4.597750576213002">
        <ele>-23.760000000000002</ele>
        <time>2022-06-26T09:38:00Z</time>
      </trkpt>
      <trkpt lat="51.234721429646015" lon="4.597750995308161">
        <ele>-23.77</ele>
        <time>2022-06-26T09:38:02Z</time>
      </trkpt>
      <trkpt lat="51.234824443235993" lon="4.597830958664417">
        <ele>-23.789999999999999</ele>
        <time>2022-06-26T09:38:11Z</time>
      </trkpt>
      <trkpt lat="51.234843134880066" lon="4.597865492105484">
        <ele>-23.800000000000001</ele>
        <time>2022-06-26T09:38:13Z</time>
      </trkpt>
      <trkpt lat="51.234945729374886" lon="4.597967835143209">
        <ele>-23.84</ele>
        <time>2022-06-26T09:38:22Z</time>
      </trkpt>
      <trkpt lat="51.235175980255008" lon="4.598160535097122">
        <ele>-23.91</ele>
        <time>2022-06-26T09:38:41Z</time>
      </trkpt>
      <trkpt lat="51.235300367698073" lon="4.598309146240354">
        <ele>-23.899999999999999</ele>
        <time>2022-06-26T09:38:54Z</time>
      </trkpt>
      <trkpt lat="51.235344875603914" lon="4.598381482064724">
        <ele>-23.870000000000001</ele>
        <time>2022-06-26T09:38:59Z</time>
      </trkpt>
      <trkpt lat="51.235502539202571" lon="4.598508719354868">
        <ele>-23.829999999999998</ele>
        <time>2022-06-26T09:39:14Z</time>
      </trkpt>
      <trkpt lat="51.235698089003563" lon="4.598715333268046">
        <ele>-23.739999999999998</ele>
        <time>2022-06-26T09:39:30Z</time>
      </trkpt>
      <trkpt lat="51.235711080953479" lon="4.598730755969882">
        <ele>-23.73</ele>
        <time>2022-06-26T09:39:31Z</time>
      </trkpt>
      <trkpt lat="51.235857596620917" lon="4.598900657147169">
        <ele>-23.670000000000002</ele>
        <time>2022-06-26T09:39:43Z</time>
      </trkpt>
      <trkpt lat="51.235979385674" lon="4.59910785779357">
        <ele>-23.57</ele>
        <time>2022-06-26T09:39:55Z</time>
      </trkpt>
      <trkpt lat="51.236085249111056" lon="4.599374402314425">
        <ele>-23.43</ele>
        <time>2022-06-26T09:40:08Z</time>
      </trkpt>
      <trkpt lat="51.236150544136763" lon="4.599547823891044">
        <ele>-23.27</ele>
        <time>2022-06-26T09:40:21Z</time>
      </trkpt>
      <trkpt lat="51.23618264682591" lon="4.599625607952476">
        <ele>-23.210000000000001</ele>
        <time>2022-06-26T09:40:25Z</time>
      </trkpt>
      <trkpt lat="51.236264035105705" lon="4.599764915183187">
        <ele>-23.120000000000001</ele>
        <time>2022-06-26T09:40:32Z</time>
      </trkpt>
      <trkpt lat="51.236418010666966" lon="4.599933307617903">
        <ele>-22.850000000000001</ele>
        <time>2022-06-26T09:40:51Z</time>
      </trkpt>
      <trkpt lat="51.236581290140748" lon="4.600246958434582">
        <ele>-22.609999999999999</ele>
        <time>2022-06-26T09:41:09Z</time>
      </trkpt>
      <trkpt lat="51.236606268212199" lon="4.600272523239255">
        <ele>-22.59</ele>
        <time>2022-06-26T09:41:11Z</time>
      </trkpt>
      <trkpt lat="51.236811876296997" lon="4.600650547072291">
        <ele>-22.350000000000001</ele>
        <time>2022-06-26T09:41:31Z</time>
      </trkpt>
      <trkpt lat="51.236997535452247" lon="4.600991103798151">
        <ele>-22.100000000000001</ele>
        <time>2022-06-26T09:41:51Z</time>
      </trkpt>
      <trkpt lat="51.237145978957415" lon="4.601249936968088">
        <ele>-21.93</ele>
        <time>2022-06-26T09:42:07Z</time>
      </trkpt>
      <trkpt lat="51.237159892916679" lon="4.601293271407485">
        <ele>-21.91</ele>
        <time>2022-06-26T09:42:09Z</time>
      </trkpt>
      <trkpt lat="51.237398693338037" lon="4.601698704063892">
        <ele>-21.68</ele>
        <time>2022-06-26T09:42:30Z</time>
      </trkpt>
      <trkpt lat="51.237569432705641" lon="4.602019479498267">
        <ele>-21.52</ele>
        <time>2022-06-26T09:42:47Z</time>
      </trkpt>
      <trkpt lat="51.237549232318997" lon="4.602094916626811">
        <ele>-21.5</ele>
        <time>2022-06-26T09:42:51Z</time>
      </trkpt>
      <trkpt lat="51.23760849237442" lon="4.602319048717618">
        <ele>-21.370000000000001</ele>
        <time>2022-06-26T09:43:06Z</time>
      </trkpt>
      <trkpt lat="51.237627770751715" lon="4.602351570501924">
        <ele>-21.34</ele>
        <time>2022-06-26T09:43:08Z</time>
      </trkpt>
      <trkpt lat="51.237820219248533" lon="4.602683493867517">
        <ele>-21.18</ele>
        <time>2022-06-26T09:43:28Z</time>
      </trkpt>
      <trkpt lat="51.23789238743484" lon="4.602830763906241">
        <ele>-22.050000000000001</ele>
        <time>2022-06-26T09:43:37Z</time>
      </trkpt>
      <trkpt lat="51.237916527315974" lon="4.602898405864835">
        <ele>-22.030000000000001</ele>
        <time>2022-06-26T09:43:39Z</time>
      </trkpt>
      <trkpt lat="51.23792658559978" lon="4.60293285548687">
        <ele>-22.02</ele>
        <time>2022-06-26T09:43:40Z</time>
      </trkpt>
      <trkpt lat="51.237962292507291" lon="4.603076605126262">
        <ele>-21.98</ele>
        <time>2022-06-26T09:43:45Z</time>
      </trkpt>
      <trkpt lat="51.237984085455537" lon="4.603094877675176">
        <ele>-21.969999999999999</ele>
        <time>2022-06-26T09:43:46Z</time>
      </trkpt>
      <trkpt lat="51.23801551759243" lon="4.603118598461151">
        <ele>-21.969999999999999</ele>
        <time>2022-06-26T09:43:47Z</time>
      </trkpt>
      <trkpt lat="51.238044099882245" lon="4.603145085275173">
        <ele>-21.949999999999999</ele>
        <time>2022-06-26T09:43:48Z</time>
      </trkpt>
      <trkpt lat="51.238068491220474" lon="4.603177690878511">
        <ele>-21.949999999999999</ele>
        <time>2022-06-26T09:43:49Z</time>
      </trkpt>
      <trkpt lat="51.238101348280907" lon="4.603209793567658">
        <ele>-21.940000000000001</ele>
        <time>2022-06-26T09:43:50Z</time>
      </trkpt>
      <trkpt lat="51.238131606951356" lon="4.603234436362982">
        <ele>-21.93</ele>
        <time>2022-06-26T09:43:51Z</time>
      </trkpt>
      <trkpt lat="51.238154992461205" lon="4.603267293423414">
        <ele>-21.920000000000002</ele>
        <time>2022-06-26T09:43:52Z</time>
      </trkpt>
      <trkpt lat="51.238175360485911" lon="4.603302916511893">
        <ele>-21.91</ele>
        <time>2022-06-26T09:43:53Z</time>
      </trkpt>
      <trkpt lat="51.23819874599576" lon="4.603334600105882">
        <ele>-21.899999999999999</ele>
        <time>2022-06-26T09:43:54Z</time>
      </trkpt>
      <trkpt lat="51.238223724067211" lon="4.603365864604712">
        <ele>-21.890000000000001</ele>
        <time>2022-06-26T09:43:55Z</time>
      </trkpt>
      <trkpt lat="51.238248283043504" lon="4.603390758857131">
        <ele>-21.879999999999999</ele>
        <time>2022-06-26T09:43:56Z</time>
      </trkpt>
      <trkpt lat="51.238268399611115" lon="4.603410959243774">
        <ele>-21.870000000000001</ele>
        <time>2022-06-26T09:43:57Z</time>
      </trkpt>
      <trkpt lat="51.23844601213932" lon="4.603595193475485">
        <ele>-21.77</ele>
        <time>2022-06-26T09:44:08Z</time>
      </trkpt>
      <trkpt lat="51.238619098439813" lon="4.60371614433825">
        <ele>-21.68</ele>
        <time>2022-06-26T09:44:17Z</time>
      </trkpt>
      <trkpt lat="51.238632593303919" lon="4.603727795183659">
        <ele>-21.670000000000002</ele>
        <time>2022-06-26T09:44:18Z</time>
      </trkpt>
      <trkpt lat="51.238644495606422" lon="4.603743301704526">
        <ele>-21.66</ele>
        <time>2022-06-26T09:44:19Z</time>
      </trkpt>
      <trkpt lat="51.238658828660846" lon="4.60376744158566">
        <ele>-21.649999999999999</ele>
        <time>2022-06-26T09:44:20Z</time>
      </trkpt>
      <trkpt lat="51.238679699599743" lon="4.603780265897512">
        <ele>-21.640000000000001</ele>
        <time>2022-06-26T09:44:21Z</time>
      </trkpt>
      <trkpt lat="51.238735858350992" lon="4.603805160149932">
        <ele>-21.609999999999999</ele>
        <time>2022-06-26T09:44:24Z</time>
      </trkpt>
      <trkpt lat="51.238754214718938" lon="4.603819577023387">
        <ele>-21.600000000000001</ele>
        <time>2022-06-26T09:44:25Z</time>
      </trkpt>
      <trkpt lat="51.238776510581374" lon="4.603838603943586">
        <ele>-21.59</ele>
        <time>2022-06-26T09:44:26Z</time>
      </trkpt>
      <trkpt lat="51.238801991567016" lon="4.603853691369295">
        <ele>-21.579999999999998</ele>
        <time>2022-06-26T09:44:27Z</time>
      </trkpt>
      <trkpt lat="51.238837949931622" lon="4.603876825422049">
        <ele>-21.57</ele>
        <time>2022-06-26T09:44:28Z</time>
      </trkpt>
      <trkpt lat="51.238870471715927" lon="4.603904150426388">
        <ele>-21.559999999999999</ele>
        <time>2022-06-26T09:44:29Z</time>
      </trkpt>
      <trkpt lat="51.238902490586042" lon="4.6039311401546">
        <ele>-21.559999999999999</ele>
        <time>2022-06-26T09:44:30Z</time>
      </trkpt>
      <trkpt lat="51.239181524142623" lon="4.604299273341894">
        <ele>-21.43</ele>
        <time>2022-06-26T09:44:42Z</time>
      </trkpt>
      <trkpt lat="51.239444380626082" lon="4.604580737650394">
        <ele>-21.309999999999999</ele>
        <time>2022-06-26T09:44:53Z</time>
      </trkpt>
      <trkpt lat="51.239940840750933" lon="4.604918947443366">
        <ele>-18.719999999999999</ele>
        <time>2022-06-26T09:45:19Z</time>
      </trkpt>
      <trkpt lat="51.239963388070464" lon="4.60493721999228">
        <ele>-18.699999999999999</ele>
        <time>2022-06-26T09:45:20Z</time>
      </trkpt>
      <trkpt lat="51.239980822429061" lon="4.604953229427338">
        <ele>-18.690000000000001</ele>
        <time>2022-06-26T09:45:21Z</time>
      </trkpt>
      <trkpt lat="51.240026419982314" lon="4.604977872222662">
        <ele>-18.690000000000001</ele>
        <time>2022-06-26T09:45:22Z</time>
      </trkpt>
      <trkpt lat="51.240073358640075" lon="4.605007125064731">
        <ele>-18.68</ele>
        <time>2022-06-26T09:45:23Z</time>
      </trkpt>
      <trkpt lat="51.240108730271459" lon="4.605030259117484">
        <ele>-18.68</ele>
        <time>2022-06-26T09:45:24Z</time>
      </trkpt>
      <trkpt lat="51.240133624523878" lon="4.605055153369904">
        <ele>-18.670000000000002</ele>
        <time>2022-06-26T09:45:25Z</time>
      </trkpt>
      <trkpt lat="51.240202356129885" lon="4.605112904682756">
        <ele>-18.640000000000001</ele>
        <time>2022-06-26T09:45:28Z</time>
      </trkpt>
      <trkpt lat="51.240260610356927" lon="4.605139810591936">
        <ele>-18.609999999999999</ele>
        <time>2022-06-26T09:45:33Z</time>
      </trkpt>
      <trkpt lat="51.240294892340899" lon="4.605147605761886">
        <ele>-18.59</ele>
        <time>2022-06-26T09:45:35Z</time>
      </trkpt>
      <trkpt lat="51.240419950336218" lon="4.605104019865394">
        <ele>-18.530000000000001</ele>
        <time>2022-06-26T09:45:43Z</time>
      </trkpt>
      <trkpt lat="51.240452053025365" lon="4.605090692639351">
        <ele>-18.510000000000002</ele>
        <time>2022-06-26T09:45:45Z</time>
      </trkpt>
      <trkpt lat="51.240598484873772" lon="4.604964628815651">
        <ele>-18.440000000000001</ele>
        <time>2022-06-26T09:45:54Z</time>
      </trkpt>
      <trkpt lat="51.240606615319848" lon="4.604943254962564">
        <ele>-18.43</ele>
        <time>2022-06-26T09:45:55Z</time>
      </trkpt>
      <trkpt lat="51.24062187038362" lon="4.604923725128174">
        <ele>-18.420000000000002</ele>
        <time>2022-06-26T09:45:56Z</time>
      </trkpt>
      <trkpt lat="51.240634191781282" lon="4.604906123131514">
        <ele>-18.420000000000002</ele>
        <time>2022-06-26T09:45:57Z</time>
      </trkpt>
      <trkpt lat="51.240648860111833" lon="4.604891454800963">
        <ele>-18.41</ele>
        <time>2022-06-26T09:45:58Z</time>
      </trkpt>
      <trkpt lat="51.24068439938128" lon="4.60483705624938">
        <ele>-18.379999999999999</ele>
        <time>2022-06-26T09:46:02Z</time>
      </trkpt>
      <trkpt lat="51.240705354139209" lon="4.604773772880435">
        <ele>-18.34</ele>
        <time>2022-06-26T09:46:07Z</time>
      </trkpt>
      <trkpt lat="51.240715244784951" lon="4.604739909991622">
        <ele>-18.32</ele>
        <time>2022-06-26T09:46:09Z</time>
      </trkpt>
      <trkpt lat="51.2407196033746" lon="4.604721134528518">
        <ele>-18.309999999999999</ele>
        <time>2022-06-26T09:46:10Z</time>
      </trkpt>
      <trkpt lat="51.240904424339533" lon="4.604531200602651">
        <ele>-18.23</ele>
        <time>2022-06-26T09:46:22Z</time>
      </trkpt>
      <trkpt lat="51.240971982479095" lon="4.60450085811317">
        <ele>-18.199999999999999</ele>
        <time>2022-06-26T09:46:26Z</time>
      </trkpt>
      <trkpt lat="51.241039037704468" lon="4.60441879928112">
        <ele>-18.140000000000001</ele>
        <time>2022-06-26T09:46:35Z</time>
      </trkpt>
      <trkpt lat="51.241144146770239" lon="4.604256525635719">
        <ele>-18.09</ele>
        <time>2022-06-26T09:46:45Z</time>
      </trkpt>
      <trkpt lat="51.241248669102788" lon="4.604060724377632">
        <ele>-18.050000000000001</ele>
        <time>2022-06-26T09:46:54Z</time>
      </trkpt>
      <trkpt lat="51.241256212815642" lon="4.604034991934896">
        <ele>-18.050000000000001</ele>
        <time>2022-06-26T09:46:55Z</time>
      </trkpt>
      <trkpt lat="51.241492666304111" lon="4.60367071442306">
        <ele>-17.989999999999998</ele>
        <time>2022-06-26T09:47:15Z</time>
      </trkpt>
      <trkpt lat="51.24151948839426" lon="4.603645903989673">
        <ele>-16.75</ele>
        <time>2022-06-26T09:47:17Z</time>
      </trkpt>
      <trkpt lat="51.241720402613282" lon="4.603459825739265">
        <ele>-16.719999999999999</ele>
        <time>2022-06-26T09:47:32Z</time>
      </trkpt>
      <trkpt lat="51.241792319342494" lon="4.603376593440771">
        <ele>-16.719999999999999</ele>
        <time>2022-06-26T09:47:36Z</time>
      </trkpt>
      <trkpt lat="51.241807909682393" lon="4.603346502408385">
        <ele>-16.710000000000001</ele>
        <time>2022-06-26T09:47:37Z</time>
      </trkpt>
      <trkpt lat="51.241832384839654" lon="4.603307442739606">
        <ele>-16.719999999999999</ele>
        <time>2022-06-26T09:47:38Z</time>
      </trkpt>
      <trkpt lat="51.241841772571206" lon="4.603268299251795">
        <ele>-16.710000000000001</ele>
        <time>2022-06-26T09:47:39Z</time>
      </trkpt>
      <trkpt lat="51.241852082312107" lon="4.603237537667155">
        <ele>-16.710000000000001</ele>
        <time>2022-06-26T09:47:40Z</time>
      </trkpt>
      <trkpt lat="51.241935901343822" lon="4.603049699217081">
        <ele>-16.710000000000001</ele>
        <time>2022-06-26T09:47:46Z</time>
      </trkpt>
      <trkpt lat="51.242138911038637" lon="4.602832021191716">
        <ele>-16.719999999999999</ele>
        <time>2022-06-26T09:47:54Z</time>
      </trkpt>
      <trkpt lat="51.242171349003911" lon="4.602800840511918">
        <ele>-16.719999999999999</ele>
        <time>2022-06-26T09:47:55Z</time>
      </trkpt>
      <trkpt lat="51.242189286276698" lon="4.602778544649482">
        <ele>-16.719999999999999</ele>
        <time>2022-06-26T09:47:56Z</time>
      </trkpt>
      <trkpt lat="51.242333622649312" lon="4.602589616551995">
        <ele>-16.73</ele>
        <time>2022-06-26T09:48:03Z</time>
      </trkpt>
      <trkpt lat="51.242356421425939" lon="4.602531949058175">
        <ele>-16.739999999999998</ele>
        <time>2022-06-26T09:48:04Z</time>
      </trkpt>
      <trkpt lat="51.242900574579835" lon="4.601944461464882">
        <ele>-16.829999999999998</ele>
        <time>2022-06-26T09:48:26Z</time>
      </trkpt>
      <trkpt lat="51.242970982566476" lon="4.601836921647191">
        <ele>-16.859999999999999</ele>
        <time>2022-06-26T09:48:30Z</time>
      </trkpt>
      <trkpt lat="51.243010209873319" lon="4.601822504773736">
        <ele>-16.870000000000001</ele>
        <time>2022-06-26T09:48:31Z</time>
      </trkpt>
      <trkpt lat="51.243067625910044" lon="4.601804567500949">
        <ele>-16.879999999999999</ele>
        <time>2022-06-26T09:48:32Z</time>
      </trkpt>
      <trkpt lat="51.243110038340092" lon="4.601759975776076">
        <ele>-16.890000000000001</ele>
        <time>2022-06-26T09:48:34Z</time>
      </trkpt>
      <trkpt lat="51.243140045553446" lon="4.601749666035175">
        <ele>-16.899999999999999</ele>
        <time>2022-06-26T09:48:35Z</time>
      </trkpt>
      <trkpt lat="51.243165777996182" lon="4.601735752075911">
        <ele>-16.899999999999999</ele>
        <time>2022-06-26T09:48:36Z</time>
      </trkpt>
      <trkpt lat="51.243219673633575" lon="4.601712869480252">
        <ele>-16.91</ele>
        <time>2022-06-26T09:48:37Z</time>
      </trkpt>
      <trkpt lat="51.243412625044584" lon="4.601521342992783">
        <ele>-17.010000000000002</ele>
        <time>2022-06-26T09:48:49Z</time>
      </trkpt>
      <trkpt lat="51.243419162929058" lon="4.60148211568594">
        <ele>-17.02</ele>
        <time>2022-06-26T09:48:50Z</time>
      </trkpt>
      <trkpt lat="51.243512369692326" lon="4.601312465965748">
        <ele>-17.039999999999999</ele>
        <time>2022-06-26T09:48:54Z</time>
      </trkpt>
      <trkpt lat="51.243586465716362" lon="4.601178104057908">
        <ele>-17.07</ele>
        <time>2022-06-26T09:48:57Z</time>
      </trkpt>
      <trkpt lat="51.244342345744371" lon="4.600720033049583">
        <ele>-17.190000000000001</ele>
        <time>2022-06-26T09:49:12Z</time>
      </trkpt>
      <trkpt lat="51.244454914703965" lon="4.600685331970453">
        <ele>-17.219999999999999</ele>
        <time>2022-06-26T09:49:15Z</time>
      </trkpt>
      <trkpt lat="51.244489783421159" lon="4.600672172382474">
        <ele>-17.23</ele>
        <time>2022-06-26T09:49:16Z</time>
      </trkpt>
      <trkpt lat="51.244533536955714" lon="4.600648367777467">
        <ele>-17.239999999999998</ele>
        <time>2022-06-26T09:49:17Z</time>
      </trkpt>
      <trkpt lat="51.244589695706964" lon="4.600630262866616">
        <ele>-17.25</ele>
        <time>2022-06-26T09:49:18Z</time>
      </trkpt>
      <trkpt lat="51.244653901085258" lon="4.600621378049254">
        <ele>-17.25</ele>
        <time>2022-06-26T09:49:19Z</time>
      </trkpt>
      <trkpt lat="51.244706455618143" lon="4.600601093843579">
        <ele>-17.260000000000002</ele>
        <time>2022-06-26T09:49:20Z</time>
      </trkpt>
      <trkpt lat="51.244765631854534" lon="4.60057376883924">
        <ele>-17.27</ele>
        <time>2022-06-26T09:49:21Z</time>
      </trkpt>
      <trkpt lat="51.245063273236156" lon="4.600482154637575">
        <ele>-17.309999999999999</ele>
        <time>2022-06-26T09:49:26Z</time>
      </trkpt>
      <trkpt lat="51.245120940729976" lon="4.600471006706357">
        <ele>-17.32</ele>
        <time>2022-06-26T09:49:27Z</time>
      </trkpt>
      <trkpt lat="51.245457474142313" lon="4.600385511294007">
        <ele>-17.359999999999999</ele>
        <time>2022-06-26T09:49:32Z</time>
      </trkpt>
      <trkpt lat="51.245502065867186" lon="4.600366400554776">
        <ele>-17.370000000000001</ele>
        <time>2022-06-26T09:49:33Z</time>
      </trkpt>
      <trkpt lat="51.245593680068851" lon="4.600351396948099">
        <ele>-17.379999999999999</ele>
        <time>2022-06-26T09:49:35Z</time>
      </trkpt>
      <trkpt lat="51.245624860748649" lon="4.600342595949769">
        <ele>-17.390000000000001</ele>
        <time>2022-06-26T09:49:36Z</time>
      </trkpt>
      <trkpt lat="51.245660902932286" lon="4.600335471332073">
        <ele>-17.390000000000001</ele>
        <time>2022-06-26T09:49:37Z</time>
      </trkpt>
      <trkpt lat="51.245684288442135" lon="4.600333124399185">
        <ele>-17.390000000000001</ele>
        <time>2022-06-26T09:49:38Z</time>
      </trkpt>
      <trkpt lat="51.245699962601066" lon="4.600331531837583">
        <ele>-17.399999999999999</ele>
        <time>2022-06-26T09:49:39Z</time>
      </trkpt>
      <trkpt lat="51.245735669508576" lon="4.600329268723726">
        <ele>-17.41</ele>
        <time>2022-06-26T09:49:40Z</time>
      </trkpt>
      <trkpt lat="51.245772214606404" lon="4.600317617878318">
        <ele>-17.41</ele>
        <time>2022-06-26T09:49:41Z</time>
      </trkpt>
      <trkpt lat="51.246105981990695" lon="4.600135730579495">
        <ele>-17.460000000000001</ele>
        <time>2022-06-26T09:49:49Z</time>
      </trkpt>
      <trkpt lat="51.246158285066485" lon="4.600122235715389">
        <ele>-17.460000000000001</ele>
        <time>2022-06-26T09:49:50Z</time>
      </trkpt>
      <trkpt lat="51.246429271996021" lon="4.600108824670315">
        <ele>-17.460000000000001</ele>
        <time>2022-06-26T09:50:04Z</time>
      </trkpt>
      <trkpt lat="51.24641502276063" lon="4.600187530741096">
        <ele>-17.350000000000001</ele>
        <time>2022-06-26T09:50:25Z</time>
      </trkpt>
      <trkpt lat="51.246372610330582" lon="4.600175125524402">
        <ele>-17.09</ele>
        <time>2022-06-26T09:50:51Z</time>
      </trkpt>
      <trkpt lat="51.246382836252451" lon="4.600157020613551">
        <ele>-16.93</ele>
        <time>2022-06-26T09:51:04Z</time>
      </trkpt>
      <trkpt lat="51.246482077986002" lon="4.600071273744106">
        <ele>-15.800000000000001</ele>
        <time>2022-06-26T09:51:28Z</time>
      </trkpt>
      <trkpt lat="51.246589533984661" lon="4.600041685625911">
        <ele>-15.619999999999999</ele>
        <time>2022-06-26T09:51:41Z</time>
      </trkpt>
      <trkpt lat="51.246728505939245" lon="4.600034561008215">
        <ele>-15.359999999999999</ele>
        <time>2022-06-26T09:51:56Z</time>
      </trkpt>
      <trkpt lat="51.246812073513865" lon="4.600035902112722">
        <ele>-15.300000000000001</ele>
        <time>2022-06-26T09:52:00Z</time>
      </trkpt>
      <trkpt lat="51.24706394970417" lon="4.599957866594195">
        <ele>-15.06</ele>
        <time>2022-06-26T09:52:18Z</time>
      </trkpt>
      <trkpt lat="51.247101835906506" lon="4.599930876865983">
        <ele>-14.99</ele>
        <time>2022-06-26T09:52:24Z</time>
      </trkpt>
      <trkpt lat="51.247143326327205" lon="4.599875640124083">
        <ele>-14.84</ele>
        <time>2022-06-26T09:52:35Z</time>
      </trkpt>
      <trkpt lat="51.2471729144454" lon="4.59984814748168">
        <ele>-14.800000000000001</ele>
        <time>2022-06-26T09:52:38Z</time>
      </trkpt>
      <trkpt lat="51.247208453714848" lon="4.599828450009227">
        <ele>-14.76</ele>
        <time>2022-06-26T09:52:41Z</time>
      </trkpt>
      <trkpt lat="51.24721884727478" lon="4.599824091419578">
        <ele>-14.75</ele>
        <time>2022-06-26T09:52:42Z</time>
      </trkpt>
      <trkpt lat="51.247440464794636" lon="4.599643712863326">
        <ele>-14.529999999999999</ele>
        <time>2022-06-26T09:52:58Z</time>
      </trkpt>
      <trkpt lat="51.247548004612327" lon="4.599463753402233">
        <ele>-14.26</ele>
        <time>2022-06-26T09:53:18Z</time>
      </trkpt>
      <trkpt lat="51.247840113937855" lon="4.59923249669373">
        <ele>-14.039999999999999</ele>
        <time>2022-06-26T09:53:36Z</time>
      </trkpt>
      <trkpt lat="51.247914461418986" lon="4.599132500588894">
        <ele>-13.99</ele>
        <time>2022-06-26T09:53:41Z</time>
      </trkpt>
      <trkpt lat="51.248038513585925" lon="4.599031498655677">
        <ele>-13.94</ele>
        <time>2022-06-26T09:53:47Z</time>
      </trkpt>
      <trkpt lat="51.248053181916475" lon="4.599020099267364">
        <ele>-13.93</ele>
        <time>2022-06-26T09:53:48Z</time>
      </trkpt>
      <trkpt lat="51.248068101704121" lon="4.599007274955511">
        <ele>-13.92</ele>
        <time>2022-06-26T09:53:49Z</time>
      </trkpt>
      <trkpt lat="51.248137252405286" lon="4.598861932754517">
        <ele>-13.890000000000001</ele>
        <time>2022-06-26T09:53:57Z</time>
      </trkpt>
      <trkpt lat="51.248152758926153" lon="4.598841816186905">
        <ele>-13.890000000000001</ele>
        <time>2022-06-26T09:53:58Z</time>
      </trkpt>
      <trkpt lat="51.248166589066386" lon="4.598825387656689">
        <ele>-13.83</ele>
        <time>2022-06-26T09:53:59Z</time>
      </trkpt>
      <trkpt lat="51.248176479712129" lon="4.598809126764536">
        <ele>-13.83</ele>
        <time>2022-06-26T09:54:00Z</time>
      </trkpt>
      <trkpt lat="51.248187040910125" lon="4.598796470090747">
        <ele>-13.83</ele>
        <time>2022-06-26T09:54:01Z</time>
      </trkpt>
      <trkpt lat="51.248366497457027" lon="4.598584827035666">
        <ele>-13.67</ele>
        <time>2022-06-26T09:54:20Z</time>
      </trkpt>
      <trkpt lat="51.248693810775876" lon="4.598262291401625">
        <ele>-13.51</ele>
        <time>2022-06-26T09:54:40Z</time>
      </trkpt>
      <trkpt lat="51.248781317844987" lon="4.59819657728076">
        <ele>-13.5</ele>
        <time>2022-06-26T09:54:45Z</time>
      </trkpt>
      <trkpt lat="51.248799171298742" lon="4.598176712170243">
        <ele>-13.5</ele>
        <time>2022-06-26T09:54:46Z</time>
      </trkpt>
      <trkpt lat="51.24884937889874" lon="4.59812231361866">
        <ele>-13.470000000000001</ele>
        <time>2022-06-26T09:54:50Z</time>
      </trkpt>
      <trkpt lat="51.249043252319098" lon="4.597914442420006">
        <ele>-13.369999999999999</ele>
        <time>2022-06-26T09:55:06Z</time>
      </trkpt>
      <trkpt lat="51.24928766861558" lon="4.597702967002988">
        <ele>-13.27</ele>
        <time>2022-06-26T09:55:21Z</time>
      </trkpt>
      <trkpt lat="51.249448349699378" lon="4.597531137987971">
        <ele>-13.16</ele>
        <time>2022-06-26T09:55:34Z</time>
      </trkpt>
      <trkpt lat="51.24959260225296" lon="4.597386131063104">
        <ele>-13.109999999999999</ele>
        <time>2022-06-26T09:55:44Z</time>
      </trkpt>
      <trkpt lat="51.249608360230923" lon="4.597364338114858">
        <ele>-13.07</ele>
        <time>2022-06-26T09:55:45Z</time>
      </trkpt>
      <trkpt lat="51.249735513702035" lon="4.597237603738904">
        <ele>-12.98</ele>
        <time>2022-06-26T09:55:55Z</time>
      </trkpt>
      <trkpt lat="51.249903989955783" lon="4.597091423347592">
        <ele>-12.869999999999999</ele>
        <time>2022-06-26T09:56:07Z</time>
      </trkpt>
      <trkpt lat="51.25005871988833" lon="4.59694323129952">
        <ele>-12.74</ele>
        <time>2022-06-26T09:56:20Z</time>
      </trkpt>
      <trkpt lat="51.250224513933063" lon="4.5967663731426">
        <ele>-12.68</ele>
        <time>2022-06-26T09:56:32Z</time>
      </trkpt>
      <trkpt lat="51.250425344333053" lon="4.596565961837769">
        <ele>-12.5</ele>
        <time>2022-06-26T09:56:48Z</time>
      </trkpt>
      <trkpt lat="51.250597508624196" lon="4.596417434513569">
        <ele>-12.35</ele>
        <time>2022-06-26T09:57:01Z</time>
      </trkpt>
      <trkpt lat="51.250663055106997" lon="4.59633587859571">
        <ele>-12.279999999999999</ele>
        <time>2022-06-26T09:57:07Z</time>
      </trkpt>
      <trkpt lat="51.250823820009828" lon="4.596154410392046">
        <ele>-12.19</ele>
        <time>2022-06-26T09:57:19Z</time>
      </trkpt>
      <trkpt lat="51.250993050634861" lon="4.595974534749985">
        <ele>-12.08</ele>
        <time>2022-06-26T09:57:32Z</time>
      </trkpt>
      <trkpt lat="51.251179380342364" lon="4.595782421529293">
        <ele>-11.93</ele>
        <time>2022-06-26T09:57:50Z</time>
      </trkpt>
      <trkpt lat="51.251195389777422" lon="4.595772447064519">
        <ele>-11.92</ele>
        <time>2022-06-26T09:57:51Z</time>
      </trkpt>
      <trkpt lat="51.251231012865901" lon="4.595741182565689">
        <ele>-11.9</ele>
        <time>2022-06-26T09:57:54Z</time>
      </trkpt>
      <trkpt lat="51.251539634540677" lon="4.595609670504928">
        <ele>-11.74</ele>
        <time>2022-06-26T09:58:12Z</time>
      </trkpt>
      <trkpt lat="51.251778937876225" lon="4.595576478168368">
        <ele>-11.69</ele>
        <time>2022-06-26T09:58:27Z</time>
      </trkpt>
      <trkpt lat="51.252056630328298" lon="4.595526186749339">
        <ele>-11.529999999999999</ele>
        <time>2022-06-26T09:58:44Z</time>
      </trkpt>
      <trkpt lat="51.252259891480207" lon="4.595513697713614">
        <ele>-11.43</ele>
        <time>2022-06-26T09:58:55Z</time>
      </trkpt>
      <trkpt lat="51.252286965027452" lon="4.595501543954015">
        <ele>-11.43</ele>
        <time>2022-06-26T09:58:56Z</time>
      </trkpt>
      <trkpt lat="51.252303309738636" lon="4.595495844259858">
        <ele>-11.42</ele>
        <time>2022-06-26T09:58:57Z</time>
      </trkpt>
      <trkpt lat="51.252466337755322" lon="4.595453767105937">
        <ele>-11.26</ele>
        <time>2022-06-26T09:59:11Z</time>
      </trkpt>
      <trkpt lat="51.252482263371348" lon="4.595446474850178">
        <ele>-11.24</ele>
        <time>2022-06-26T09:59:12Z</time>
      </trkpt>
      <trkpt lat="51.252537835389376" lon="4.595445217564702">
        <ele>-11.18</ele>
        <time>2022-06-26T09:59:16Z</time>
      </trkpt>
      <trkpt lat="51.25259617343545" lon="4.59544412791729">
        <ele>-13.31</ele>
        <time>2022-06-26T09:59:32Z</time>
      </trkpt>
      <trkpt lat="51.252593072131276" lon="4.595447313040495">
        <ele>-13.300000000000001</ele>
        <time>2022-06-26T09:59:33Z</time>
      </trkpt>
      <trkpt lat="51.252586031332612" lon="4.595403056591749">
        <ele>-12.970000000000001</ele>
        <time>2022-06-26T09:59:56Z</time>
      </trkpt>
      <trkpt lat="51.252622744068503" lon="4.595436668023467">
        <ele>-12.6</ele>
        <time>2022-06-26T10:00:22Z</time>
      </trkpt>
      <trkpt lat="51.25259667634964" lon="4.595426693558693">
        <ele>-12.300000000000001</ele>
        <time>2022-06-26T10:00:47Z</time>
      </trkpt>
      <trkpt lat="51.252597430720925" lon="4.595380928367376">
        <ele>-11.91</ele>
        <time>2022-06-26T10:01:13Z</time>
      </trkpt>
      <trkpt lat="51.252613356336951" lon="4.595411438494921">
        <ele>-11.619999999999999</ele>
        <time>2022-06-26T10:01:36Z</time>
      </trkpt>
      <trkpt lat="51.252796584740281" lon="4.595404649153352">
        <ele>-11.369999999999999</ele>
        <time>2022-06-26T10:01:56Z</time>
      </trkpt>
      <trkpt lat="51.253013508394361" lon="4.59538939408958">
        <ele>-11.140000000000001</ele>
        <time>2022-06-26T10:02:13Z</time>
      </trkpt>
      <trkpt lat="51.253292541950941" lon="4.595344886183739">
        <ele>-10.92</ele>
        <time>2022-06-26T10:02:32Z</time>
      </trkpt>
      <trkpt lat="51.253566043451428" lon="4.595346730202436">
        <ele>-10.68</ele>
        <time>2022-06-26T10:02:52Z</time>
      </trkpt>
      <trkpt lat="51.253884891048074" lon="4.595256624743342">
        <ele>-10.5</ele>
        <time>2022-06-26T10:03:10Z</time>
      </trkpt>
      <trkpt lat="51.254164343699813" lon="4.595235837623477">
        <ele>-10.25</ele>
        <time>2022-06-26T10:03:30Z</time>
      </trkpt>
      <trkpt lat="51.254497021436691" lon="4.595168782398105">
        <ele>-9.98</ele>
        <time>2022-06-26T10:03:52Z</time>
      </trkpt>
      <trkpt lat="51.254790555685759" lon="4.595138523727655">
        <ele>-9.74</ele>
        <time>2022-06-26T10:04:12Z</time>
      </trkpt>
      <trkpt lat="51.255011837929487" lon="4.595139445737004">
        <ele>-9.529999999999999</ele>
        <time>2022-06-26T10:04:29Z</time>
      </trkpt>
      <trkpt lat="51.255402937531471" lon="4.595084292814136">
        <ele>-9.27</ele>
        <time>2022-06-26T10:04:51Z</time>
      </trkpt>
      <trkpt lat="51.255641905590892" lon="4.595063086599112">
        <ele>-8.960000000000001</ele>
        <time>2022-06-26T10:05:11Z</time>
      </trkpt>
      <trkpt lat="51.255986820906401" lon="4.59496334195137">
        <ele>-8.68</ele>
        <time>2022-06-26T10:05:31Z</time>
      </trkpt>
      <trkpt lat="51.256053205579519" lon="4.594927383586764">
        <ele>-8.640000000000001</ele>
        <time>2022-06-26T10:05:35Z</time>
      </trkpt>
      <trkpt lat="51.256293011829257" lon="4.594709873199463">
        <ele>-8.4</ele>
        <time>2022-06-26T10:05:54Z</time>
      </trkpt>
      <trkpt lat="51.256308602169156" lon="4.594685062766075">
        <ele>-8.390000000000001</ele>
        <time>2022-06-26T10:05:55Z</time>
      </trkpt>
      <trkpt lat="51.256520999595523" lon="4.594490099698305">
        <ele>-8.16</ele>
        <time>2022-06-26T10:06:12Z</time>
      </trkpt>
      <trkpt lat="51.256698779761791" lon="4.594262028113008">
        <ele>-7.96</ele>
        <time>2022-06-26T10:06:30Z</time>
      </trkpt>
      <trkpt lat="51.256894497200847" lon="4.59411115385592">
        <ele>-7.74</ele>
        <time>2022-06-26T10:06:50Z</time>
      </trkpt>
      <trkpt lat="51.257085436955094" lon="4.593995148316026">
        <ele>-7.57</ele>
        <time>2022-06-26T10:07:07Z</time>
      </trkpt>
      <trkpt lat="51.257401602342725" lon="4.593662554398179">
        <ele>-7.39</ele>
        <time>2022-06-26T10:07:29Z</time>
      </trkpt>
      <trkpt lat="51.257675187662244" lon="4.593431046232581">
        <ele>-7.26</ele>
        <time>2022-06-26T10:07:44Z</time>
      </trkpt>
      <trkpt lat="51.257693041115999" lon="4.593392489477992">
        <ele>-7.26</ele>
        <time>2022-06-26T10:07:46Z</time>
      </trkpt>
      <trkpt lat="51.258777072653174" lon="4.592272164300084">
        <ele>-6.9</ele>
        <time>2022-06-26T10:09:14Z</time>
      </trkpt>
      <trkpt lat="51.258999444544315" lon="4.592060772702098">
        <ele>-6.79</ele>
        <time>2022-06-26T10:09:33Z</time>
      </trkpt>
      <trkpt lat="51.259137410670519" lon="4.591935127973557">
        <ele>-6.7</ele>
        <time>2022-06-26T10:09:48Z</time>
      </trkpt>
      <trkpt lat="51.259358106181026" lon="4.591713175177574">
        <ele>-6.63</ele>
        <time>2022-06-26T10:10:08Z</time>
      </trkpt>
      <trkpt lat="51.259434968233109" lon="4.591616364195943">
        <ele>-6.6</ele>
        <time>2022-06-26T10:10:15Z</time>
      </trkpt>
      <trkpt lat="51.259389370679855" lon="4.591325093060732">
        <ele>-6.5</ele>
        <time>2022-06-26T10:10:31Z</time>
      </trkpt>
      <trkpt lat="51.259378222748637" lon="4.591297265142202">
        <ele>-6.5</ele>
        <time>2022-06-26T10:10:32Z</time>
      </trkpt>
      <trkpt lat="51.259345700964332" lon="4.590958133339882">
        <ele>-6.44</ele>
        <time>2022-06-26T10:10:51Z</time>
      </trkpt>
      <trkpt lat="51.259381072595716" lon="4.590861573815346">
        <ele>-6.4</ele>
        <time>2022-06-26T10:10:58Z</time>
      </trkpt>
      <trkpt lat="51.259407475590706" lon="4.590800134465098">
        <ele>-6.38</ele>
        <time>2022-06-26T10:11:07Z</time>
      </trkpt>
      <trkpt lat="51.259391969069839" lon="4.590795775875449">
        <ele>-6.23</ele>
        <time>2022-06-26T10:12:13Z</time>
      </trkpt>
      <trkpt lat="51.25939498655498" lon="4.590825196355581">
        <ele>-6.04</ele>
        <time>2022-06-26T10:12:57Z</time>
      </trkpt>
      <trkpt lat="51.259364811703563" lon="4.590767612680793">
        <ele>-5.95</ele>
        <time>2022-06-26T10:13:16Z</time>
      </trkpt>
      <trkpt lat="51.259358860552311" lon="4.590743472799659">
        <ele>-5.93</ele>
        <time>2022-06-26T10:13:19Z</time>
      </trkpt>
      <trkpt lat="51.259391717612743" lon="4.590684548020363">
        <ele>-5.77</ele>
        <time>2022-06-26T10:13:41Z</time>
      </trkpt>
      <trkpt lat="51.259400183334947" lon="4.59078018553555">
        <ele>-4.98</ele>
        <time>2022-06-26T10:15:14Z</time>
      </trkpt>
      <trkpt lat="51.25946874730289" lon="4.59088227711618">
        <ele>-4.8</ele>
        <time>2022-06-26T10:15:33Z</time>
      </trkpt>
      <trkpt lat="51.259540831670165" lon="4.590778341516852">
        <ele>-4.49</ele>
        <time>2022-06-26T10:16:05Z</time>
      </trkpt>
      <trkpt lat="51.259395154193044" lon="4.590760488063097">
        <ele>7.04</ele>
        <time>2022-06-26T11:35:49Z</time>
      </trkpt>
      <trkpt lat="51.259403619915247" lon="4.590792255476117">
        <ele>7.05</ele>
        <time>2022-06-26T11:36:16Z</time>
      </trkpt>
      <trkpt lat="51.25937101431191" lon="4.590851180255413">
        <ele>7.06</ele>
        <time>2022-06-26T11:36:42Z</time>
      </trkpt>
      <trkpt lat="51.259539742022753" lon="4.591418132185936">
        <ele>4.66</ele>
        <time>2022-06-26T11:37:22Z</time>
      </trkpt>
      <trkpt lat="51.259548794478178" lon="4.59143640473485">
        <ele>4.66</ele>
        <time>2022-06-26T11:37:23Z</time>
      </trkpt>
      <trkpt lat="51.259565893560648" lon="4.591497257351875">
        <ele>4.65</ele>
        <time>2022-06-26T11:37:27Z</time>
      </trkpt>
      <trkpt lat="51.259434968233109" lon="4.591713091358542">
        <ele>4.56</ele>
        <time>2022-06-26T11:37:45Z</time>
      </trkpt>
      <trkpt lat="51.259272694587708" lon="4.591903695836663">
        <ele>4.42</ele>
        <time>2022-06-26T11:38:04Z</time>
      </trkpt>
      <trkpt lat="51.259071948006749" lon="4.592125816270709">
        <ele>4.24</ele>
        <time>2022-06-26T11:38:23Z</time>
      </trkpt>
      <trkpt lat="51.258813617751002" lon="4.592350115999579">
        <ele>4</ele>
        <time>2022-06-26T11:38:44Z</time>
      </trkpt>
      <trkpt lat="51.25863466411829" lon="4.592628059908748">
        <ele>3.75</ele>
        <time>2022-06-26T11:39:02Z</time>
      </trkpt>
      <trkpt lat="51.258371137082577" lon="4.592948164790869">
        <ele>3.45</ele>
        <time>2022-06-26T11:39:20Z</time>
      </trkpt>
      <trkpt lat="51.25813870690763" lon="4.593194676563144">
        <ele>3.03</ele>
        <time>2022-06-26T11:39:43Z</time>
      </trkpt>
      <trkpt lat="51.257839472964406" lon="4.593501035124064">
        <ele>2.53</ele>
        <time>2022-06-26T11:40:08Z</time>
      </trkpt>
      <trkpt lat="51.257612826302648" lon="4.593735560774803">
        <ele>2.05</ele>
        <time>2022-06-26T11:40:30Z</time>
      </trkpt>
      <trkpt lat="51.257373606786132" lon="4.59395432844758">
        <ele>1.63</ele>
        <time>2022-06-26T11:40:48Z</time>
      </trkpt>
      <trkpt lat="51.257244106382132" lon="4.594078967347741">
        <ele>0.59</ele>
        <time>2022-06-26T11:40:57Z</time>
      </trkpt>
      <trkpt lat="51.257043611258268" lon="4.594241995364428">
        <ele>0.13</ele>
        <time>2022-06-26T11:41:14Z</time>
      </trkpt>
      <trkpt lat="51.256754603236914" lon="4.594447687268257">
        <ele>-0.26</ele>
        <time>2022-06-26T11:41:32Z</time>
      </trkpt>
      <trkpt lat="51.25650817528367" lon="4.594669137150049">
        <ele>-0.64</ele>
        <time>2022-06-26T11:41:51Z</time>
      </trkpt>
      <trkpt lat="51.256335927173495" lon="4.594929395243526">
        <ele>-0.92</ele>
        <time>2022-06-26T11:42:06Z</time>
      </trkpt>
      <trkpt lat="51.256117662414908" lon="4.595064092427492">
        <ele>-1.23</ele>
        <time>2022-06-26T11:42:21Z</time>
      </trkpt>
      <trkpt lat="51.255933176726103" lon="4.595132237300277">
        <ele>-1.5</ele>
        <time>2022-06-26T11:42:33Z</time>
      </trkpt>
      <trkpt lat="51.255878694355488" lon="4.59512896835804">
        <ele>-1.57</ele>
        <time>2022-06-26T11:42:36Z</time>
      </trkpt>
      <trkpt lat="51.25573905184865" lon="4.595180684700608">
        <ele>0.49</ele>
        <time>2022-06-26T11:42:45Z</time>
      </trkpt>
      <trkpt lat="51.255659339949489" lon="4.595190910622478">
        <ele>0.39</ele>
        <time>2022-06-26T11:42:50Z</time>
      </trkpt>
      <trkpt lat="51.255438225343823" lon="4.595276406034827">
        <ele>-0.04</ele>
        <time>2022-06-26T11:43:06Z</time>
      </trkpt>
      <trkpt lat="51.255340492352843" lon="4.595310520380735">
        <ele>-0.26</ele>
        <time>2022-06-26T11:43:14Z</time>
      </trkpt>
      <trkpt lat="51.255156341940165" lon="4.595325607806444">
        <ele>-0.68</ele>
        <time>2022-06-26T11:43:27Z</time>
      </trkpt>
      <trkpt lat="51.25505592674017" lon="4.595326697453857">
        <ele>-0.95</ele>
        <time>2022-06-26T11:43:34Z</time>
      </trkpt>
      <trkpt lat="51.254826430231333" lon="4.595374809578061">
        <ele>-1.43</ele>
        <time>2022-06-26T11:43:49Z</time>
      </trkpt>
      <trkpt lat="51.254616128280759" lon="4.595431722700596">
        <ele>-1.92</ele>
        <time>2022-06-26T11:44:03Z</time>
      </trkpt>
      <trkpt lat="51.254568519070745" lon="4.595432644709945">
        <ele>-2.03</ele>
        <time>2022-06-26T11:44:06Z</time>
      </trkpt>
      <trkpt lat="51.254510097205639" lon="4.59545879624784">
        <ele>-2.25</ele>
        <time>2022-06-26T11:44:11Z</time>
      </trkpt>
      <trkpt lat="51.254422087222338" lon="4.595487797632814">
        <ele>-2.44</ele>
        <time>2022-06-26T11:44:17Z</time>
      </trkpt>
      <trkpt lat="51.254396438598633" lon="4.595491653308272">
        <ele>-2.51</ele>
        <time>2022-06-26T11:44:19Z</time>
      </trkpt>
      <trkpt lat="51.254232907667756" lon="4.595518307760358">
        <ele>-3.04</ele>
        <time>2022-06-26T11:44:32Z</time>
      </trkpt>
      <trkpt lat="51.253959406167269" lon="4.595494838431478">
        <ele>-3.72</ele>
        <time>2022-06-26T11:44:50Z</time>
      </trkpt>
      <trkpt lat="51.253661848604679" lon="4.595557115972042">
        <ele>-4.49</ele>
        <time>2022-06-26T11:45:11Z</time>
      </trkpt>
      <trkpt lat="51.253440901637077" lon="4.595607910305262">
        <ele>-5.07</ele>
        <time>2022-06-26T11:45:26Z</time>
      </trkpt>
      <trkpt lat="51.253287428990006" lon="4.595612352713943">
        <ele>-5.51</ele>
        <time>2022-06-26T11:45:37Z</time>
      </trkpt>
      <trkpt lat="51.253099506720901" lon="4.595627775415778">
        <ele>-5.97</ele>
        <time>2022-06-26T11:45:49Z</time>
      </trkpt>
      <trkpt lat="51.252975203096867" lon="4.595659542828798">
        <ele>-6.23</ele>
        <time>2022-06-26T11:45:56Z</time>
      </trkpt>
      <trkpt lat="51.252514366060495" lon="4.595699524506927">
        <ele>-7.27</ele>
        <time>2022-06-26T11:46:24Z</time>
      </trkpt>
      <trkpt lat="51.252289479598403" lon="4.59574612788856">
        <ele>-7.64</ele>
        <time>2022-06-26T11:46:35Z</time>
      </trkpt>
      <trkpt lat="51.252021845430136" lon="4.595723832026124">
        <ele>-7.95</ele>
        <time>2022-06-26T11:46:45Z</time>
      </trkpt>
      <trkpt lat="51.251751109957695" lon="4.595695333555341">
        <ele>-8.300000000000001</ele>
        <time>2022-06-26T11:46:56Z</time>
      </trkpt>
      <trkpt lat="51.251702159643173" lon="4.595696926116943">
        <ele>-8.4</ele>
        <time>2022-06-26T11:46:58Z</time>
      </trkpt>
      <trkpt lat="51.25168439000845" lon="4.595716372132301">
        <ele>-8.43</ele>
        <time>2022-06-26T11:46:59Z</time>
      </trkpt>
      <trkpt lat="51.251666704192758" lon="4.595725173130631">
        <ele>-8.460000000000001</ele>
        <time>2022-06-26T11:47:00Z</time>
      </trkpt>
      <trkpt lat="51.251598224043846" lon="4.595741350203753">
        <ele>-8.560000000000001</ele>
        <time>2022-06-26T11:47:03Z</time>
      </trkpt>
      <trkpt lat="51.251575257629156" lon="4.595740176737309">
        <ele>-8.59</ele>
        <time>2022-06-26T11:47:04Z</time>
      </trkpt>
      <trkpt lat="51.251098662614822" lon="4.596072183921933">
        <ele>-9.19</ele>
        <time>2022-06-26T11:47:25Z</time>
      </trkpt>
      <trkpt lat="51.250818371772766" lon="4.596381224691868">
        <ele>-9.44</ele>
        <time>2022-06-26T11:47:34Z</time>
      </trkpt>
      <trkpt lat="51.250796997919679" lon="4.596392372623086">
        <ele>-9.460000000000001</ele>
        <time>2022-06-26T11:47:35Z</time>
      </trkpt>
      <trkpt lat="51.250769421458244" lon="4.596410645172">
        <ele>-9.48</ele>
        <time>2022-06-26T11:47:36Z</time>
      </trkpt>
      <trkpt lat="51.250488627701998" lon="4.596667718142271">
        <ele>-9.75</ele>
        <time>2022-06-26T11:47:47Z</time>
      </trkpt>
      <trkpt lat="51.250467756763101" lon="4.596685068681836">
        <ele>-9.77</ele>
        <time>2022-06-26T11:47:48Z</time>
      </trkpt>
      <trkpt lat="51.250429786741734" lon="4.596699988469482">
        <ele>-9.800000000000001</ele>
        <time>2022-06-26T11:47:49Z</time>
      </trkpt>
      <trkpt lat="51.250396426767111" lon="4.596713315695524">
        <ele>-9.810000000000001</ele>
        <time>2022-06-26T11:47:50Z</time>
      </trkpt>
      <trkpt lat="51.250346135348082" lon="4.596731252968311">
        <ele>-9.82</ele>
        <time>2022-06-26T11:47:51Z</time>
      </trkpt>
      <trkpt lat="51.250320319086313" lon="4.59674240089953">
        <ele>-9.84</ele>
        <time>2022-06-26T11:47:52Z</time>
      </trkpt>
      <trkpt lat="51.250304477289319" lon="4.596752710640431">
        <ele>-9.859999999999999</ele>
        <time>2022-06-26T11:47:53Z</time>
      </trkpt>
      <trkpt lat="51.250277571380138" lon="4.596786657348275">
        <ele>-9.859999999999999</ele>
        <time>2022-06-26T11:47:54Z</time>
      </trkpt>
      <trkpt lat="51.250264244154096" lon="4.596793027594686">
        <ele>-9.92</ele>
        <time>2022-06-26T11:47:55Z</time>
      </trkpt>
      <trkpt lat="51.250246055424213" lon="4.596817251294851">
        <ele>-9.91</ele>
        <time>2022-06-26T11:47:56Z</time>
      </trkpt>
      <trkpt lat="51.250230213627219" lon="4.596837619319558">
        <ele>-9.93</ele>
        <time>2022-06-26T11:47:57Z</time>
      </trkpt>
      <trkpt lat="51.249603750184178" lon="4.597352603450418">
        <ele>-10.300000000000001</ele>
        <time>2022-06-26T11:48:17Z</time>
      </trkpt>
      <trkpt lat="51.249189181253314" lon="4.597789468243718">
        <ele>-10.59</ele>
        <time>2022-06-26T11:48:29Z</time>
      </trkpt>
      <trkpt lat="51.248894724994898" lon="4.598189955577254">
        <ele>-10.85</ele>
        <time>2022-06-26T11:48:42Z</time>
      </trkpt>
      <trkpt lat="51.248875949531794" lon="4.598257932811976">
        <ele>-10.869999999999999</ele>
        <time>2022-06-26T11:48:43Z</time>
      </trkpt>
      <trkpt lat="51.248850552365184" lon="4.598312582820654">
        <ele>-10.890000000000001</ele>
        <time>2022-06-26T11:48:44Z</time>
      </trkpt>
      <trkpt lat="51.24882741831243" lon="4.59835977293551">
        <ele>-10.91</ele>
        <time>2022-06-26T11:48:45Z</time>
      </trkpt>
      <trkpt lat="51.248809732496738" lon="4.598375950008631">
        <ele>-10.92</ele>
        <time>2022-06-26T11:48:46Z</time>
      </trkpt>
      <trkpt lat="51.248735133558512" lon="4.598482064902782">
        <ele>-11</ele>
        <time>2022-06-26T11:48:50Z</time>
      </trkpt>
      <trkpt lat="51.248548133298755" lon="4.598688930273056">
        <ele>-11.25</ele>
        <time>2022-06-26T11:49:04Z</time>
      </trkpt>
      <trkpt lat="51.248228615149856" lon="4.599124118685722">
        <ele>-11.56</ele>
        <time>2022-06-26T11:49:26Z</time>
      </trkpt>
      <trkpt lat="51.247988473623991" lon="4.599330984055996">
        <ele>-11.859999999999999</ele>
        <time>2022-06-26T11:49:42Z</time>
      </trkpt>
      <trkpt lat="51.247972464188933" lon="4.599342048168182">
        <ele>-11.869999999999999</ele>
        <time>2022-06-26T11:49:43Z</time>
      </trkpt>
      <trkpt lat="51.247958382591605" lon="4.599356800317764">
        <ele>-11.890000000000001</ele>
        <time>2022-06-26T11:49:44Z</time>
      </trkpt>
      <trkpt lat="51.247844640165567" lon="4.599456209689379">
        <ele>-12.050000000000001</ele>
        <time>2022-06-26T11:49:55Z</time>
      </trkpt>
      <trkpt lat="51.24780273064971" lon="4.599474901333451">
        <ele>-12.09</ele>
        <time>2022-06-26T11:49:58Z</time>
      </trkpt>
      <trkpt lat="51.247786805033684" lon="4.599485462531447">
        <ele>-12.1</ele>
        <time>2022-06-26T11:49:59Z</time>
      </trkpt>
      <trkpt lat="51.24776903539896" lon="4.599494850263">
        <ele>-12.119999999999999</ele>
        <time>2022-06-26T11:50:00Z</time>
      </trkpt>
      <trkpt lat="51.247723856940866" lon="4.599541621282697">
        <ele>-12.16</ele>
        <time>2022-06-26T11:50:04Z</time>
      </trkpt>
      <trkpt lat="51.247692089527845" lon="4.599569868296385">
        <ele>-12.199999999999999</ele>
        <time>2022-06-26T11:50:07Z</time>
      </trkpt>
      <trkpt lat="51.24768203124404" lon="4.599588559940457">
        <ele>-12.199999999999999</ele>
        <time>2022-06-26T11:50:08Z</time>
      </trkpt>
      <trkpt lat="51.247669290751219" lon="4.599604401737452">
        <ele>-12.210000000000001</ele>
        <time>2022-06-26T11:50:09Z</time>
      </trkpt>
      <trkpt lat="51.247656801715493" lon="4.599618650972843">
        <ele>-12.23</ele>
        <time>2022-06-26T11:50:10Z</time>
      </trkpt>
      <trkpt lat="51.24764347448945" lon="4.599636672064662">
        <ele>-12.25</ele>
        <time>2022-06-26T11:50:11Z</time>
      </trkpt>
      <trkpt lat="51.247503161430359" lon="4.599754773080349">
        <ele>-12.369999999999999</ele>
        <time>2022-06-26T11:50:25Z</time>
      </trkpt>
      <trkpt lat="51.247460749000311" lon="4.59975871257484">
        <ele>-12.41</ele>
        <time>2022-06-26T11:50:28Z</time>
      </trkpt>
      <trkpt lat="51.247417582198977" lon="4.599820906296372">
        <ele>-12.44</ele>
        <time>2022-06-26T11:50:32Z</time>
      </trkpt>
      <trkpt lat="51.247403500601649" lon="4.599849740043283">
        <ele>-12.460000000000001</ele>
        <time>2022-06-26T11:50:33Z</time>
      </trkpt>
      <trkpt lat="51.247171154245734" lon="4.600083427503705">
        <ele>-12.59</ele>
        <time>2022-06-26T11:50:51Z</time>
      </trkpt>
      <trkpt lat="51.247153803706169" lon="4.600087702274323">
        <ele>-12.58</ele>
        <time>2022-06-26T11:50:52Z</time>
      </trkpt>
      <trkpt lat="51.247134022414684" lon="4.600089881569147">
        <ele>-12.609999999999999</ele>
        <time>2022-06-26T11:50:53Z</time>
      </trkpt>
      <trkpt lat="51.246931180357933" lon="4.600105052813888">
        <ele>-12.789999999999999</ele>
        <time>2022-06-26T11:51:07Z</time>
      </trkpt>
      <trkpt lat="51.246379651129246" lon="4.600085020065308">
        <ele>-14.18</ele>
        <time>2022-06-26T11:53:31Z</time>
      </trkpt>
      <trkpt lat="51.24631779268384" lon="4.600079571828246">
        <ele>-14.210000000000001</ele>
        <time>2022-06-26T11:53:42Z</time>
      </trkpt>
      <trkpt lat="51.246307902038097" lon="4.600073285400868">
        <ele>-14.199999999999999</ele>
        <time>2022-06-26T11:53:43Z</time>
      </trkpt>
      <trkpt lat="51.246295077726245" lon="4.600086444988847">
        <ele>-14.210000000000001</ele>
        <time>2022-06-26T11:53:44Z</time>
      </trkpt>
      <trkpt lat="51.2462835945189" lon="4.600093653425574">
        <ele>-14.210000000000001</ele>
        <time>2022-06-26T11:53:45Z</time>
      </trkpt>
      <trkpt lat="51.246117716655135" lon="4.600196499377489">
        <ele>-14.25</ele>
        <time>2022-06-26T11:53:59Z</time>
      </trkpt>
      <trkpt lat="51.245911102741957" lon="4.600238157436252">
        <ele>-14.26</ele>
        <time>2022-06-26T11:54:14Z</time>
      </trkpt>
      <trkpt lat="51.245713038370013" lon="4.600271852687001">
        <ele>-14.33</ele>
        <time>2022-06-26T11:54:28Z</time>
      </trkpt>
      <trkpt lat="51.245699543505907" lon="4.600279899314046">
        <ele>-14.33</ele>
        <time>2022-06-26T11:54:29Z</time>
      </trkpt>
      <trkpt lat="51.245684707537293" lon="4.600285766646266">
        <ele>-14.33</ele>
        <time>2022-06-26T11:54:30Z</time>
      </trkpt>
      <trkpt lat="51.245672721415758" lon="4.600294316187501">
        <ele>-14.34</ele>
        <time>2022-06-26T11:54:31Z</time>
      </trkpt>
      <trkpt lat="51.24565813690424" lon="4.600301021710038">
        <ele>-14.33</ele>
        <time>2022-06-26T11:54:32Z</time>
      </trkpt>
      <trkpt lat="51.245641708374023" lon="4.600306218490005">
        <ele>-14.33</ele>
        <time>2022-06-26T11:54:33Z</time>
      </trkpt>
      <trkpt lat="51.245625782757998" lon="4.600309235975146">
        <ele>-14.35</ele>
        <time>2022-06-26T11:54:34Z</time>
      </trkpt>
      <trkpt lat="51.24560440890491" lon="4.600304961204529">
        <ele>-14.35</ele>
        <time>2022-06-26T11:54:35Z</time>
      </trkpt>
      <trkpt lat="51.245586639270186" lon="4.600307978689671">
        <ele>-14.359999999999999</ele>
        <time>2022-06-26T11:54:36Z</time>
      </trkpt>
      <trkpt lat="51.245570965111256" lon="4.600309487432241">
        <ele>-14.369999999999999</ele>
        <time>2022-06-26T11:54:37Z</time>
      </trkpt>
      <trkpt lat="51.245473735034466" lon="4.600339410826564">
        <ele>-14.380000000000001</ele>
        <time>2022-06-26T11:54:44Z</time>
      </trkpt>
      <trkpt lat="51.24532981775701" lon="4.600380146875978">
        <ele>-14.42</ele>
        <time>2022-06-26T11:54:56Z</time>
      </trkpt>
      <trkpt lat="51.245223702862859" lon="4.600394563749433">
        <ele>-14.470000000000001</ele>
        <time>2022-06-26T11:55:04Z</time>
      </trkpt>
      <trkpt lat="51.245211381465197" lon="4.600395821034908">
        <ele>-14.49</ele>
        <time>2022-06-26T11:55:05Z</time>
      </trkpt>
      <trkpt lat="51.245157402008772" lon="4.600414261221886">
        <ele>-14.51</ele>
        <time>2022-06-26T11:55:10Z</time>
      </trkpt>
      <trkpt lat="51.245063440874219" lon="4.600457428023219">
        <ele>-14.59</ele>
        <time>2022-06-26T11:55:18Z</time>
      </trkpt>
      <trkpt lat="51.24479815363884" lon="4.600575864315033">
        <ele>-14.859999999999999</ele>
        <time>2022-06-26T11:55:41Z</time>
      </trkpt>
      <trkpt lat="51.244569076225162" lon="4.600667646154761">
        <ele>-15.119999999999999</ele>
        <time>2022-06-26T11:55:57Z</time>
      </trkpt>
      <trkpt lat="51.244205888360739" lon="4.600961348041892">
        <ele>-15.619999999999999</ele>
        <time>2022-06-26T11:56:26Z</time>
      </trkpt>
      <trkpt lat="51.244184598326683" lon="4.600974004715681">
        <ele>-15.640000000000001</ele>
        <time>2022-06-26T11:56:27Z</time>
      </trkpt>
      <trkpt lat="51.244164565578103" lon="4.600989427417517">
        <ele>-15.66</ele>
        <time>2022-06-26T11:56:28Z</time>
      </trkpt>
      <trkpt lat="51.243953760713339" lon="4.601138290017843">
        <ele>-15.92</ele>
        <time>2022-06-26T11:56:43Z</time>
      </trkpt>
      <trkpt lat="51.243695598095655" lon="4.601317159831524">
        <ele>-16.170000000000002</ele>
        <time>2022-06-26T11:56:59Z</time>
      </trkpt>
      <trkpt lat="51.243534414097667" lon="4.601398883387446">
        <ele>-16.379999999999999</ele>
        <time>2022-06-26T11:57:13Z</time>
      </trkpt>
      <trkpt lat="51.243297792971134" lon="4.601540872827172">
        <ele>-16.609999999999999</ele>
        <time>2022-06-26T11:57:28Z</time>
      </trkpt>
      <trkpt lat="51.243271809071302" lon="4.601561408489943">
        <ele>-16.640000000000001</ele>
        <time>2022-06-26T11:57:30Z</time>
      </trkpt>
      <trkpt lat="51.243120096623898" lon="4.601697195321322">
        <ele>-16.84</ele>
        <time>2022-06-26T11:57:44Z</time>
      </trkpt>
      <trkpt lat="51.242936868220568" lon="4.601960387080908">
        <ele>-17.100000000000001</ele>
        <time>2022-06-26T11:58:05Z</time>
      </trkpt>
      <trkpt lat="51.242921194061637" lon="4.601985868066549">
        <ele>-17.120000000000001</ele>
        <time>2022-06-26T11:58:06Z</time>
      </trkpt>
      <trkpt lat="51.242426494136453" lon="4.602704867720604">
        <ele>-17.649999999999999</ele>
        <time>2022-06-26T11:58:46Z</time>
      </trkpt>
      <trkpt lat="51.242405707016587" lon="4.60273495875299">
        <ele>-17.670000000000002</ele>
        <time>2022-06-26T11:58:48Z</time>
      </trkpt>
      <trkpt lat="51.242392798885703" lon="4.602752644568682">
        <ele>-17.68</ele>
        <time>2022-06-26T11:58:49Z</time>
      </trkpt>
      <trkpt lat="51.242228597402573" lon="4.602927407249808">
        <ele>-17.84</ele>
        <time>2022-06-26T11:59:02Z</time>
      </trkpt>
      <trkpt lat="51.242220215499401" lon="4.602942746132612">
        <ele>-17.850000000000001</ele>
        <time>2022-06-26T11:59:03Z</time>
      </trkpt>
      <trkpt lat="51.242208648473024" lon="4.602958671748638">
        <ele>-17.859999999999999</ele>
        <time>2022-06-26T11:59:04Z</time>
      </trkpt>
      <trkpt lat="51.242194566875696" lon="4.602968562394381">
        <ele>-17.870000000000001</ele>
        <time>2022-06-26T11:59:05Z</time>
      </trkpt>
      <trkpt lat="51.242179060354829" lon="4.602979375049472">
        <ele>-17.890000000000001</ele>
        <time>2022-06-26T11:59:06Z</time>
      </trkpt>
      <trkpt lat="51.242143101990223" lon="4.603008544072509">
        <ele>-17.920000000000002</ele>
        <time>2022-06-26T11:59:09Z</time>
      </trkpt>
      <trkpt lat="51.242130110040307" lon="4.603021619841456">
        <ele>-17.940000000000001</ele>
        <time>2022-06-26T11:59:10Z</time>
      </trkpt>
      <trkpt lat="51.242117034271359" lon="4.603032432496548">
        <ele>-17.960000000000001</ele>
        <time>2022-06-26T11:59:11Z</time>
      </trkpt>
      <trkpt lat="51.242106892168522" lon="4.603038467466831">
        <ele>-17.969999999999999</ele>
        <time>2022-06-26T11:59:12Z</time>
      </trkpt>
      <trkpt lat="51.242095408961177" lon="4.603051878511906">
        <ele>-17.969999999999999</ele>
        <time>2022-06-26T11:59:13Z</time>
      </trkpt>
      <trkpt lat="51.242079315707088" lon="4.603061014786363">
        <ele>-17.989999999999998</ele>
        <time>2022-06-26T11:59:14Z</time>
      </trkpt>
      <trkpt lat="51.242033047601581" lon="4.603126225993037">
        <ele>-18.030000000000001</ele>
        <time>2022-06-26T11:59:19Z</time>
      </trkpt>
      <trkpt lat="51.241999939084053" lon="4.603167716413736">
        <ele>-18.100000000000001</ele>
        <time>2022-06-26T11:59:23Z</time>
      </trkpt>
      <trkpt lat="51.241968674585223" lon="4.603208368644118">
        <ele>-18.129999999999999</ele>
        <time>2022-06-26T11:59:26Z</time>
      </trkpt>
      <trkpt lat="51.241954173892736" lon="4.60323091596365">
        <ele>-18.140000000000001</ele>
        <time>2022-06-26T11:59:27Z</time>
      </trkpt>
      <trkpt lat="51.241941265761852" lon="4.603251535445452">
        <ele>-18.16</ele>
        <time>2022-06-26T11:59:28Z</time>
      </trkpt>
      <trkpt lat="51.241930788382888" lon="4.603276010602713">
        <ele>-18.170000000000002</ele>
        <time>2022-06-26T11:59:29Z</time>
      </trkpt>
      <trkpt lat="51.241919137537479" lon="4.603296127170324">
        <ele>-18.18</ele>
        <time>2022-06-26T11:59:30Z</time>
      </trkpt>
      <trkpt lat="51.241904720664024" lon="4.603312388062477">
        <ele>-18.199999999999999</ele>
        <time>2022-06-26T11:59:31Z</time>
      </trkpt>
      <trkpt lat="51.241872534155846" lon="4.60332571528852">
        <ele>-18.219999999999999</ele>
        <time>2022-06-26T11:59:33Z</time>
      </trkpt>
      <trkpt lat="51.241858704015613" lon="4.60334382019937">
        <ele>-18.219999999999999</ele>
        <time>2022-06-26T11:59:34Z</time>
      </trkpt>
      <trkpt lat="51.241848981007934" lon="4.603350777179003">
        <ele>-18.23</ele>
        <time>2022-06-26T11:59:35Z</time>
      </trkpt>
      <trkpt lat="51.241839677095413" lon="4.603374917060137">
        <ele>-18.260000000000002</ele>
        <time>2022-06-26T11:59:37Z</time>
      </trkpt>
      <trkpt lat="51.241824589669704" lon="4.603385897353292">
        <ele>-18.27</ele>
        <time>2022-06-26T11:59:38Z</time>
      </trkpt>
      <trkpt lat="51.241810005158186" lon="4.603408612310886">
        <ele>-18.289999999999999</ele>
        <time>2022-06-26T11:59:39Z</time>
      </trkpt>
      <trkpt lat="51.24169584363699" lon="4.603498131036758">
        <ele>-18.370000000000001</ele>
        <time>2022-06-26T11:59:48Z</time>
      </trkpt>
      <trkpt lat="51.241680672392249" lon="4.603523779660463">
        <ele>-18.379999999999999</ele>
        <time>2022-06-26T11:59:49Z</time>
      </trkpt>
      <trkpt lat="51.241669608280063" lon="4.603545069694519">
        <ele>-18.379999999999999</ele>
        <time>2022-06-26T11:59:50Z</time>
      </trkpt>
      <trkpt lat="51.241658544167876" lon="4.603564431890845">
        <ele>-18.390000000000001</ele>
        <time>2022-06-26T11:59:51Z</time>
      </trkpt>
      <trkpt lat="51.241646222770214" lon="4.603582201525569">
        <ele>-18.399999999999999</ele>
        <time>2022-06-26T11:59:52Z</time>
      </trkpt>
      <trkpt lat="51.241632308810949" lon="4.603599887341261">
        <ele>-18.41</ele>
        <time>2022-06-26T11:59:53Z</time>
      </trkpt>
      <trkpt lat="51.241618897765875" lon="4.603616232052445">
        <ele>-18.41</ele>
        <time>2022-06-26T11:59:54Z</time>
      </trkpt>
      <trkpt lat="51.241605654358864" lon="4.603629307821393">
        <ele>-18.41</ele>
        <time>2022-06-26T11:59:55Z</time>
      </trkpt>
      <trkpt lat="51.241454780101776" lon="4.603857714682818">
        <ele>-18.43</ele>
        <time>2022-06-26T12:00:08Z</time>
      </trkpt>
      <trkpt lat="51.241407757624984" lon="4.6039052400738">
        <ele>-18.43</ele>
        <time>2022-06-26T12:00:11Z</time>
      </trkpt>
      <trkpt lat="51.241273814812303" lon="4.604047480970621">
        <ele>-18.460000000000001</ele>
        <time>2022-06-26T12:00:22Z</time>
      </trkpt>
      <trkpt lat="51.24112805351615" lon="4.604208916425705">
        <ele>-18.48</ele>
        <time>2022-06-26T12:00:34Z</time>
      </trkpt>
      <trkpt lat="51.241109864786267" lon="4.604246886447072">
        <ele>-18.48</ele>
        <time>2022-06-26T12:00:36Z</time>
      </trkpt>
      <trkpt lat="51.240967288613319" lon="4.604454338550568">
        <ele>-18.440000000000001</ele>
        <time>2022-06-26T12:00:50Z</time>
      </trkpt>
      <trkpt lat="51.240799566730857" lon="4.604646870866418">
        <ele>-18.379999999999999</ele>
        <time>2022-06-26T12:01:04Z</time>
      </trkpt>
      <trkpt lat="51.24067509546876" lon="4.604799337685108">
        <ele>-18.350000000000001</ele>
        <time>2022-06-26T12:01:15Z</time>
      </trkpt>
      <trkpt lat="51.240555234253407" lon="4.60497192107141">
        <ele>-18.34</ele>
        <time>2022-06-26T12:01:25Z</time>
      </trkpt>
      <trkpt lat="51.240543918684125" lon="4.604984326288104">
        <ele>-18.329999999999998</ele>
        <time>2022-06-26T12:01:26Z</time>
      </trkpt>
      <trkpt lat="51.240400085225701" lon="4.605140313506126">
        <ele>-18.300000000000001</ele>
        <time>2022-06-26T12:01:38Z</time>
      </trkpt>
      <trkpt lat="51.240387931466103" lon="4.60516001097858">
        <ele>-18.289999999999999</ele>
        <time>2022-06-26T12:01:39Z</time>
      </trkpt>
      <trkpt lat="51.240228591486812" lon="4.605429070070386">
        <ele>-18.210000000000001</ele>
        <time>2022-06-26T12:01:52Z</time>
      </trkpt>
      <trkpt lat="51.240215348079801" lon="4.605441894382238">
        <ele>-18.210000000000001</ele>
        <time>2022-06-26T12:01:53Z</time>
      </trkpt>
      <trkpt lat="51.240099258720875" lon="4.605601988732815">
        <ele>-18.18</ele>
        <time>2022-06-26T12:02:05Z</time>
      </trkpt>
      <trkpt lat="51.240086602047086" lon="4.605616489425302">
        <ele>-18.170000000000002</ele>
        <time>2022-06-26T12:02:06Z</time>
      </trkpt>
      <trkpt lat="51.240072101354599" lon="4.605633420869708">
        <ele>-18.170000000000002</ele>
        <time>2022-06-26T12:02:07Z</time>
      </trkpt>
      <trkpt lat="51.240049051120877" lon="4.605670887976885">
        <ele>-18.16</ele>
        <time>2022-06-26T12:02:09Z</time>
      </trkpt>
      <trkpt lat="51.240034969523549" lon="4.605692178010941">
        <ele>-18.16</ele>
        <time>2022-06-26T12:02:10Z</time>
      </trkpt>
      <trkpt lat="51.240018540993333" lon="4.605711456388235">
        <ele>-18.149999999999999</ele>
        <time>2022-06-26T12:02:11Z</time>
      </trkpt>
      <trkpt lat="51.240002950653434" lon="4.60573174059391">
        <ele>-18.149999999999999</ele>
        <time>2022-06-26T12:02:12Z</time>
      </trkpt>
      <trkpt lat="51.239991970360279" lon="4.605755880475044">
        <ele>-18.140000000000001</ele>
        <time>2022-06-26T12:02:13Z</time>
      </trkpt>
      <trkpt lat="51.239963388070464" lon="4.605801729485393">
        <ele>-18.120000000000001</ele>
        <time>2022-06-26T12:02:16Z</time>
      </trkpt>
      <trkpt lat="51.239949893206358" lon="4.605812039226294">
        <ele>-18.120000000000001</ele>
        <time>2022-06-26T12:02:17Z</time>
      </trkpt>
      <trkpt lat="51.239933464676142" lon="4.605810362845659">
        <ele>-18.120000000000001</ele>
        <time>2022-06-26T12:02:18Z</time>
      </trkpt>
      <trkpt lat="51.239914018660784" lon="4.605826791375876">
        <ele>-18.109999999999999</ele>
        <time>2022-06-26T12:02:20Z</time>
      </trkpt>
      <trkpt lat="51.239833887666464" lon="4.605939779430628">
        <ele>-18.079999999999998</ele>
        <time>2022-06-26T12:02:27Z</time>
      </trkpt>
      <trkpt lat="51.239823242649436" lon="4.605959979817271">
        <ele>-18.079999999999998</ele>
        <time>2022-06-26T12:02:28Z</time>
      </trkpt>
      <trkpt lat="51.239810334518552" lon="4.605989400297403">
        <ele>-18.07</ele>
        <time>2022-06-26T12:02:29Z</time>
      </trkpt>
      <trkpt lat="51.239793905988336" lon="4.606006834656">
        <ele>-18.07</ele>
        <time>2022-06-26T12:02:30Z</time>
      </trkpt>
      <trkpt lat="51.239779405295849" lon="4.606026280671358">
        <ele>-18.059999999999999</ele>
        <time>2022-06-26T12:02:31Z</time>
      </trkpt>
      <trkpt lat="51.239638086408377" lon="4.606214454397559">
        <ele>-18.039999999999999</ele>
        <time>2022-06-26T12:02:43Z</time>
      </trkpt>
      <trkpt lat="51.239626100286841" lon="4.606227613985539">
        <ele>-18.050000000000001</ele>
        <time>2022-06-26T12:02:44Z</time>
      </trkpt>
      <trkpt lat="51.239614365622401" lon="4.606247646734119">
        <ele>-18.050000000000001</ele>
        <time>2022-06-26T12:02:45Z</time>
      </trkpt>
      <trkpt lat="51.239561811089516" lon="4.606328615918756">
        <ele>-18.030000000000001</ele>
        <time>2022-06-26T12:02:50Z</time>
      </trkpt>
      <trkpt lat="51.239546639844775" lon="4.606346050277352">
        <ele>-18.030000000000001</ele>
        <time>2022-06-26T12:02:51Z</time>
      </trkpt>
      <trkpt lat="51.239428538829088" lon="4.606541432440281">
        <ele>-17.989999999999998</ele>
        <time>2022-06-26T12:03:02Z</time>
      </trkpt>
      <trkpt lat="51.239334242418408" lon="4.606660371646285">
        <ele>-17.960000000000001</ele>
        <time>2022-06-26T12:03:10Z</time>
      </trkpt>
      <trkpt lat="51.239319825544953" lon="4.606676464900374">
        <ele>-17.960000000000001</ele>
        <time>2022-06-26T12:03:11Z</time>
      </trkpt>
      <trkpt lat="51.239308845251799" lon="4.60669138468802">
        <ele>-17.960000000000001</ele>
        <time>2022-06-26T12:03:12Z</time>
      </trkpt>
      <trkpt lat="51.239159144461155" lon="4.606885425746441">
        <ele>-17.870000000000001</ele>
        <time>2022-06-26T12:03:26Z</time>
      </trkpt>
      <trkpt lat="51.239134334027767" lon="4.606909900903702">
        <ele>-17.870000000000001</ele>
        <time>2022-06-26T12:03:28Z</time>
      </trkpt>
      <trkpt lat="51.239122599363327" lon="4.606921132653952">
        <ele>-17.870000000000001</ele>
        <time>2022-06-26T12:03:29Z</time>
      </trkpt>
      <trkpt lat="51.238912967965007" lon="4.606991121545434">
        <ele>-17.800000000000001</ele>
        <time>2022-06-26T12:03:41Z</time>
      </trkpt>
      <trkpt lat="51.238714065402746" lon="4.607034791260958">
        <ele>-16.809999999999999</ele>
        <time>2022-06-26T12:03:53Z</time>
      </trkpt>
      <trkpt lat="51.238517258316278" lon="4.607057087123394">
        <ele>-16.789999999999999</ele>
        <time>2022-06-26T12:04:05Z</time>
      </trkpt>
      <trkpt lat="51.23849680647254" lon="4.607059853151441">
        <ele>-16.780000000000001</ele>
        <time>2022-06-26T12:04:06Z</time>
      </trkpt>
      <trkpt lat="51.238479372113943" lon="4.607060188427568">
        <ele>-16.780000000000001</ele>
        <time>2022-06-26T12:04:07Z</time>
      </trkpt>
      <trkpt lat="51.238464787602425" lon="4.60706815123558">
        <ele>-16.780000000000001</ele>
        <time>2022-06-26T12:04:08Z</time>
      </trkpt>
      <trkpt lat="51.238446598872542" lon="4.607076197862625">
        <ele>-16.780000000000001</ele>
        <time>2022-06-26T12:04:09Z</time>
      </trkpt>
      <trkpt lat="51.238258676603436" lon="4.607138559222221">
        <ele>-16.719999999999999</ele>
        <time>2022-06-26T12:04:22Z</time>
      </trkpt>
      <trkpt lat="51.238154741004109" lon="4.60719077847898">
        <ele>-16.690000000000001</ele>
        <time>2022-06-26T12:04:30Z</time>
      </trkpt>
      <trkpt lat="51.238139066845179" lon="4.6071966458112">
        <ele>-16.690000000000001</ele>
        <time>2022-06-26T12:04:31Z</time>
      </trkpt>
      <trkpt lat="51.238124398514628" lon="4.607206033542752">
        <ele>-16.68</ele>
        <time>2022-06-26T12:04:32Z</time>
      </trkpt>
      <trkpt lat="51.238108389079571" lon="4.607211230322719">
        <ele>-16.68</ele>
        <time>2022-06-26T12:04:33Z</time>
      </trkpt>
      <trkpt lat="51.238093050196767" lon="4.607219276949763">
        <ele>-16.690000000000001</ele>
        <time>2022-06-26T12:04:34Z</time>
      </trkpt>
      <trkpt lat="51.23807854950428" lon="4.607226736843586">
        <ele>-16.690000000000001</ele>
        <time>2022-06-26T12:04:35Z</time>
      </trkpt>
      <trkpt lat="51.237911665812135" lon="4.607304017990828">
        <ele>-16.68</ele>
        <time>2022-06-26T12:04:49Z</time>
      </trkpt>
      <trkpt lat="51.237686108797789" lon="4.607352716848254">
        <ele>-16.68</ele>
        <time>2022-06-26T12:05:04Z</time>
      </trkpt>
      <trkpt lat="51.237483769655228" lon="4.607395380735397">
        <ele>-16.710000000000001</ele>
        <time>2022-06-26T12:05:17Z</time>
      </trkpt>
      <trkpt lat="51.237314203754067" lon="4.607451958581805">
        <ele>-16.780000000000001</ele>
        <time>2022-06-26T12:05:30Z</time>
      </trkpt>
      <trkpt lat="51.237118905410171" lon="4.607519349083304">
        <ele>-16.879999999999999</ele>
        <time>2022-06-26T12:05:44Z</time>
      </trkpt>
      <trkpt lat="51.236999128013849" lon="4.607540303841233">
        <ele>-16.93</ele>
        <time>2022-06-26T12:05:51Z</time>
      </trkpt>
      <trkpt lat="51.236935090273619" lon="4.607547679916024">
        <ele>-16.969999999999999</ele>
        <time>2022-06-26T12:05:55Z</time>
      </trkpt>
      <trkpt lat="51.236774576827884" lon="4.607638455927372">
        <ele>-17.100000000000001</ele>
        <time>2022-06-26T12:06:08Z</time>
      </trkpt>
      <trkpt lat="51.236633425578475" lon="4.607648262754083">
        <ele>-17.190000000000001</ele>
        <time>2022-06-26T12:06:15Z</time>
      </trkpt>
      <trkpt lat="51.236434606835246" lon="4.60763736627996">
        <ele>-17.309999999999999</ele>
        <time>2022-06-26T12:06:25Z</time>
      </trkpt>
      <trkpt lat="51.236349614337087" lon="4.60763786919415">
        <ele>-17.48</ele>
        <time>2022-06-26T12:06:50Z</time>
      </trkpt>
      <trkpt lat="51.23630141839385" lon="4.607697715982795">
        <ele>-17.559999999999999</ele>
        <time>2022-06-26T12:07:15Z</time>
      </trkpt>
      <trkpt lat="51.236059600487351" lon="4.607760077342391">
        <ele>-17.59</ele>
        <time>2022-06-26T12:07:34Z</time>
      </trkpt>
      <trkpt lat="51.235872684046626" lon="4.607764519751072">
        <ele>-17.600000000000001</ele>
        <time>2022-06-26T12:07:44Z</time>
      </trkpt>
      <trkpt lat="51.235852316021919" lon="4.607756640762091">
        <ele>-17.609999999999999</ele>
        <time>2022-06-26T12:07:45Z</time>
      </trkpt>
      <trkpt lat="51.235818117856979" lon="4.607767201960087">
        <ele>-17.600000000000001</ele>
        <time>2022-06-26T12:07:47Z</time>
      </trkpt>
      <trkpt lat="51.235801773145795" lon="4.607775835320354">
        <ele>-17.600000000000001</ele>
        <time>2022-06-26T12:07:48Z</time>
      </trkpt>
      <trkpt lat="51.235783332958817" lon="4.607777176424861">
        <ele>-17.609999999999999</ele>
        <time>2022-06-26T12:07:49Z</time>
      </trkpt>
      <trkpt lat="51.23576539568603" lon="4.607783714309335">
        <ele>-17.609999999999999</ele>
        <time>2022-06-26T12:07:50Z</time>
      </trkpt>
      <trkpt lat="51.235731365159154" lon="4.607793102040887">
        <ele>-17.609999999999999</ele>
        <time>2022-06-26T12:07:52Z</time>
      </trkpt>
      <trkpt lat="51.235711332410574" lon="4.607802992686629">
        <ele>-17.620000000000001</ele>
        <time>2022-06-26T12:07:53Z</time>
      </trkpt>
      <trkpt lat="51.235692976042628" lon="4.607808860018849">
        <ele>-17.620000000000001</ele>
        <time>2022-06-26T12:07:54Z</time>
      </trkpt>
      <trkpt lat="51.235588956624269" lon="4.60785873234272">
        <ele>-17.620000000000001</ele>
        <time>2022-06-26T12:08:02Z</time>
      </trkpt>
      <trkpt lat="51.235467754304409" lon="4.607861582189798">
        <ele>-17.640000000000001</ele>
        <time>2022-06-26T12:08:12Z</time>
      </trkpt>
      <trkpt lat="51.235192911699414" lon="4.608019329607487">
        <ele>-17.670000000000002</ele>
        <time>2022-06-26T12:08:32Z</time>
      </trkpt>
      <trkpt lat="51.235003313049674" lon="4.608144136145711">
        <ele>-17.670000000000002</ele>
        <time>2022-06-26T12:08:44Z</time>
      </trkpt>
      <trkpt lat="51.234837267547846" lon="4.60832292214036">
        <ele>-17.649999999999999</ele>
        <time>2022-06-26T12:08:57Z</time>
      </trkpt>
      <trkpt lat="51.234678598120809" lon="4.608517298474908">
        <ele>-17.620000000000001</ele>
        <time>2022-06-26T12:09:13Z</time>
      </trkpt>
      <trkpt lat="51.234627133235335" lon="4.6085349842906">
        <ele>-17.600000000000001</ele>
        <time>2022-06-26T12:09:24Z</time>
      </trkpt>
      <trkpt lat="51.234533423557878" lon="4.608682505786419">
        <ele>-17.579999999999998</ele>
        <time>2022-06-26T12:09:34Z</time>
      </trkpt>
      <trkpt lat="51.234493190422654" lon="4.608732210472226">
        <ele>-17.579999999999998</ele>
        <time>2022-06-26T12:09:37Z</time>
      </trkpt>
      <trkpt lat="51.234478354454041" lon="4.60874947719276">
        <ele>-17.579999999999998</ele>
        <time>2022-06-26T12:09:38Z</time>
      </trkpt>
      <trkpt lat="51.234461758285761" lon="4.60876758210361">
        <ele>-17.57</ele>
        <time>2022-06-26T12:09:39Z</time>
      </trkpt>
      <trkpt lat="51.234446754679084" lon="4.608779065310955">
        <ele>-17.57</ele>
        <time>2022-06-26T12:09:40Z</time>
      </trkpt>
      <trkpt lat="51.234427392482758" lon="4.608795661479235">
        <ele>-17.57</ele>
        <time>2022-06-26T12:09:41Z</time>
      </trkpt>
      <trkpt lat="51.234419094398618" lon="4.608807731419802">
        <ele>-17.57</ele>
        <time>2022-06-26T12:09:42Z</time>
      </trkpt>
      <trkpt lat="51.234407443553209" lon="4.608828350901604">
        <ele>-17.57</ele>
        <time>2022-06-26T12:09:43Z</time>
      </trkpt>
      <trkpt lat="51.234371736645699" lon="4.608858693391085">
        <ele>-17.559999999999999</ele>
        <time>2022-06-26T12:09:46Z</time>
      </trkpt>
      <trkpt lat="51.234216336160898" lon="4.608992217108607">
        <ele>-17.559999999999999</ele>
        <time>2022-06-26T12:09:54Z</time>
      </trkpt>
      <trkpt lat="51.234200494363904" lon="4.609011076390743">
        <ele>-17.539999999999999</ele>
        <time>2022-06-26T12:09:55Z</time>
      </trkpt>
      <trkpt lat="51.234175516292453" lon="4.609032366424799">
        <ele>-17.539999999999999</ele>
        <time>2022-06-26T12:09:56Z</time>
      </trkpt>
      <trkpt lat="51.234152214601636" lon="4.609053656458855">
        <ele>-17.539999999999999</ele>
        <time>2022-06-26T12:09:57Z</time>
      </trkpt>
      <trkpt lat="51.23413385823369" lon="4.609085842967033">
        <ele>-17.539999999999999</ele>
        <time>2022-06-26T12:09:58Z</time>
      </trkpt>
      <trkpt lat="51.234118938446045" lon="4.609114676713944">
        <ele>-17.530000000000001</ele>
        <time>2022-06-26T12:09:59Z</time>
      </trkpt>
      <trkpt lat="51.234103851020336" lon="4.609137140214443">
        <ele>-17.52</ele>
        <time>2022-06-26T12:10:00Z</time>
      </trkpt>
      <trkpt lat="51.234086668118834" lon="4.609153065830469">
        <ele>-17.530000000000001</ele>
        <time>2022-06-26T12:10:01Z</time>
      </trkpt>
      <trkpt lat="51.233853399753571" lon="4.609355237334967">
        <ele>-17.52</ele>
        <time>2022-06-26T12:10:11Z</time>
      </trkpt>
      <trkpt lat="51.233735969290137" lon="4.609469985589385">
        <ele>-17.539999999999999</ele>
        <time>2022-06-26T12:10:16Z</time>
      </trkpt>
      <trkpt lat="51.233708141371608" lon="4.609475685283542">
        <ele>-17.550000000000001</ele>
        <time>2022-06-26T12:10:17Z</time>
      </trkpt>
      <trkpt lat="51.233689365908504" lon="4.609478199854493">
        <ele>-17.550000000000001</ele>
        <time>2022-06-26T12:10:18Z</time>
      </trkpt>
      <trkpt lat="51.233669081702828" lon="4.609485492110252">
        <ele>-17.550000000000001</ele>
        <time>2022-06-26T12:10:19Z</time>
      </trkpt>
      <trkpt lat="51.23353966511786" lon="4.609674252569675">
        <ele>-17.57</ele>
        <time>2022-06-26T12:10:27Z</time>
      </trkpt>
      <trkpt lat="51.2334995996207" lon="4.609699230641127">
        <ele>-17.579999999999998</ele>
        <time>2022-06-26T12:10:29Z</time>
      </trkpt>
      <trkpt lat="51.233486775308847" lon="4.609715156257153">
        <ele>-17.579999999999998</ele>
        <time>2022-06-26T12:10:30Z</time>
      </trkpt>
      <trkpt lat="51.233342606574297" lon="4.609906431287527">
        <ele>-17.629999999999999</ele>
        <time>2022-06-26T12:10:42Z</time>
      </trkpt>
      <trkpt lat="51.233097771182656" lon="4.610197618603706">
        <ele>-17.780000000000001</ele>
        <time>2022-06-26T12:11:01Z</time>
      </trkpt>
      <trkpt lat="51.232881182804704" lon="4.610442873090506">
        <ele>-17.899999999999999</ele>
        <time>2022-06-26T12:11:13Z</time>
      </trkpt>
      <trkpt lat="51.232608184218407" lon="4.610713524743915">
        <ele>-18.039999999999999</ele>
        <time>2022-06-26T12:11:24Z</time>
      </trkpt>
      <trkpt lat="51.232577925547957" lon="4.610737413167954">
        <ele>-18.050000000000001</ele>
        <time>2022-06-26T12:11:25Z</time>
      </trkpt>
      <trkpt lat="51.232553953304887" lon="4.610752919688821">
        <ele>-18.07</ele>
        <time>2022-06-26T12:11:26Z</time>
      </trkpt>
      <trkpt lat="51.232531908899546" lon="4.61077144369483">
        <ele>-18.07</ele>
        <time>2022-06-26T12:11:27Z</time>
      </trkpt>
      <trkpt lat="51.232507433742285" lon="4.610794996842742">
        <ele>-18.09</ele>
        <time>2022-06-26T12:11:28Z</time>
      </trkpt>
      <trkpt lat="51.232251953333616" lon="4.611156340688467">
        <ele>-18.23</ele>
        <time>2022-06-26T12:11:38Z</time>
      </trkpt>
      <trkpt lat="51.232104850932956" lon="4.61136270314455">
        <ele>-18.329999999999998</ele>
        <time>2022-06-26T12:11:45Z</time>
      </trkpt>
      <trkpt lat="51.232093116268516" lon="4.611371252685785">
        <ele>-18.34</ele>
        <time>2022-06-26T12:11:46Z</time>
      </trkpt>
      <trkpt lat="51.232078950852156" lon="4.611387262120843">
        <ele>-18.350000000000001</ele>
        <time>2022-06-26T12:11:47Z</time>
      </trkpt>
      <trkpt lat="51.231978870928288" lon="4.611486671492457">
        <ele>-18.449999999999999</ele>
        <time>2022-06-26T12:11:55Z</time>
      </trkpt>
      <trkpt lat="51.231728754937649" lon="4.611540399491787">
        <ele>-18.57</ele>
        <time>2022-06-26T12:12:09Z</time>
      </trkpt>
      <trkpt lat="51.23148450627923" lon="4.611591277644038">
        <ele>-18.670000000000002</ele>
        <time>2022-06-26T12:12:22Z</time>
      </trkpt>
      <trkpt lat="51.231446117162704" lon="4.611614579334855">
        <ele>-18.68</ele>
        <time>2022-06-26T12:12:24Z</time>
      </trkpt>
      <trkpt lat="51.231424575671554" lon="4.61162505671382">
        <ele>-18.68</ele>
        <time>2022-06-26T12:12:25Z</time>
      </trkpt>
      <trkpt lat="51.231397837400436" lon="4.611636372283101">
        <ele>-18.690000000000001</ele>
        <time>2022-06-26T12:12:26Z</time>
      </trkpt>
      <trkpt lat="51.231374116614461" lon="4.611641988158226">
        <ele>-18.690000000000001</ele>
        <time>2022-06-26T12:12:27Z</time>
      </trkpt>
      <trkpt lat="51.231353580951691" lon="4.611653219908476">
        <ele>-18.699999999999999</ele>
        <time>2022-06-26T12:12:28Z</time>
      </trkpt>
      <trkpt lat="51.231333380565047" lon="4.611662607640028">
        <ele>-18.699999999999999</ele>
        <time>2022-06-26T12:12:29Z</time>
      </trkpt>
      <trkpt lat="51.231193570420146" lon="4.611914316192269">
        <ele>-18.690000000000001</ele>
        <time>2022-06-26T12:12:41Z</time>
      </trkpt>
      <trkpt lat="51.2311458773911" lon="4.612018335610628">
        <ele>-18.670000000000002</ele>
        <time>2022-06-26T12:12:46Z</time>
      </trkpt>
      <trkpt lat="51.231134729459882" lon="4.612033423036337">
        <ele>-18.670000000000002</ele>
        <time>2022-06-26T12:12:47Z</time>
      </trkpt>
      <trkpt lat="51.230979077517986" lon="4.612300051376224">
        <ele>-18.600000000000001</ele>
        <time>2022-06-26T12:13:02Z</time>
      </trkpt>
      <trkpt lat="51.230870531871915" lon="4.612414631992579">
        <ele>-18.489999999999998</ele>
        <time>2022-06-26T12:13:16Z</time>
      </trkpt>
      <trkpt lat="51.230731559917331" lon="4.612655863165855">
        <ele>-18.359999999999999</ele>
        <time>2022-06-26T12:13:34Z</time>
      </trkpt>
      <trkpt lat="51.230558473616838" lon="4.612987954169512">
        <ele>-18.280000000000001</ele>
        <time>2022-06-26T12:13:51Z</time>
      </trkpt>
      <trkpt lat="51.230433918535709" lon="4.613217283040285">
        <ele>-18.199999999999999</ele>
        <time>2022-06-26T12:14:06Z</time>
      </trkpt>
      <trkpt lat="51.23041732236743" lon="4.613268077373505">
        <ele>-18.199999999999999</ele>
        <time>2022-06-26T12:14:08Z</time>
      </trkpt>
      <trkpt lat="51.230404498055577" lon="4.613289032131434">
        <ele>-18.190000000000001</ele>
        <time>2022-06-26T12:14:09Z</time>
      </trkpt>
      <trkpt lat="51.230390667915344" lon="4.613317949697375">
        <ele>-18.190000000000001</ele>
        <time>2022-06-26T12:14:10Z</time>
      </trkpt>
      <trkpt lat="51.230379268527031" lon="4.613342257216573">
        <ele>-18.18</ele>
        <time>2022-06-26T12:14:11Z</time>
      </trkpt>
      <trkpt lat="51.230365606024861" lon="4.613358769565821">
        <ele>-18.18</ele>
        <time>2022-06-26T12:14:12Z</time>
      </trkpt>
      <trkpt lat="51.23035479336977" lon="4.613375449553132">
        <ele>-18.18</ele>
        <time>2022-06-26T12:14:13Z</time>
      </trkpt>
      <trkpt lat="51.230343477800488" lon="4.613384418189526">
        <ele>-18.170000000000002</ele>
        <time>2022-06-26T12:14:14Z</time>
      </trkpt>
      <trkpt lat="51.23033526353538" lon="4.613394560292363">
        <ele>-18.170000000000002</ele>
        <time>2022-06-26T12:14:15Z</time>
      </trkpt>
      <trkpt lat="51.230326630175114" lon="4.613407300785184">
        <ele>-18.170000000000002</ele>
        <time>2022-06-26T12:14:16Z</time>
      </trkpt>
      <trkpt lat="51.23016226105392" lon="4.613807955756784">
        <ele>-18.129999999999999</ele>
        <time>2022-06-26T12:14:33Z</time>
      </trkpt>
      <trkpt lat="51.230153795331717" lon="4.613840142264962">
        <ele>-18.129999999999999</ele>
        <time>2022-06-26T12:14:34Z</time>
      </trkpt>
      <trkpt lat="51.23006746172905" lon="4.614084474742413">
        <ele>-18.109999999999999</ele>
        <time>2022-06-26T12:14:49Z</time>
      </trkpt>
      <trkpt lat="51.229966375976801" lon="4.614556962624192">
        <ele>-18.129999999999999</ele>
        <time>2022-06-26T12:15:09Z</time>
      </trkpt>
      <trkpt lat="51.22992773540318" lon="4.614617228507996">
        <ele>-18.18</ele>
        <time>2022-06-26T12:15:28Z</time>
      </trkpt>
      <trkpt lat="51.229935782030225" lon="4.614942278712988">
        <ele>-18.199999999999999</ele>
        <time>2022-06-26T12:15:47Z</time>
      </trkpt>
      <trkpt lat="51.229823296889663" lon="4.615330025553703">
        <ele>-18.149999999999999</ele>
        <time>2022-06-26T12:16:07Z</time>
      </trkpt>
      <trkpt lat="51.229739477857947" lon="4.61579161696136">
        <ele>-18.079999999999998</ele>
        <time>2022-06-26T12:16:24Z</time>
      </trkpt>
      <trkpt lat="51.229645600542426" lon="4.616149440407753">
        <ele>-18</ele>
        <time>2022-06-26T12:16:38Z</time>
      </trkpt>
      <trkpt lat="51.229555495083332" lon="4.616464851424098">
        <ele>-17.899999999999999</ele>
        <time>2022-06-26T12:16:52Z</time>
      </trkpt>
      <trkpt lat="51.229488020762801" lon="4.61668873205781">
        <ele>-17.809999999999999</ele>
        <time>2022-06-26T12:17:03Z</time>
      </trkpt>
      <trkpt lat="51.229485590010881" lon="4.616715554147959">
        <ele>-17.800000000000001</ele>
        <time>2022-06-26T12:17:04Z</time>
      </trkpt>
      <trkpt lat="51.229477375745773" lon="4.616732317954302">
        <ele>-17.789999999999999</ele>
        <time>2022-06-26T12:17:05Z</time>
      </trkpt>
      <trkpt lat="51.22945960611105" lon="4.616761151701212">
        <ele>-17.77</ele>
        <time>2022-06-26T12:17:07Z</time>
      </trkpt>
      <trkpt lat="51.229372015222907" lon="4.616970531642437">
        <ele>-17.670000000000002</ele>
        <time>2022-06-26T12:17:19Z</time>
      </trkpt>
      <trkpt lat="51.229296326637268" lon="4.617179157212377">
        <ele>-17.59</ele>
        <time>2022-06-26T12:17:30Z</time>
      </trkpt>
      <trkpt lat="51.229247879236937" lon="4.617315866053104">
        <ele>-17.550000000000001</ele>
        <time>2022-06-26T12:17:36Z</time>
      </trkpt>
      <trkpt lat="51.229237820953131" lon="4.617344280704856">
        <ele>-17.539999999999999</ele>
        <time>2022-06-26T12:17:37Z</time>
      </trkpt>
      <trkpt lat="51.229145871475339" lon="4.617527928203344">
        <ele>-17.489999999999998</ele>
        <time>2022-06-26T12:17:49Z</time>
      </trkpt>
      <trkpt lat="51.229011928662658" lon="4.617924727499485">
        <ele>-17.420000000000002</ele>
        <time>2022-06-26T12:18:04Z</time>
      </trkpt>
      <trkpt lat="51.228911764919758" lon="4.618453625589609">
        <ele>-17.34</ele>
        <time>2022-06-26T12:18:22Z</time>
      </trkpt>
      <trkpt lat="51.228861892595887" lon="4.61885679513216">
        <ele>-17.260000000000002</ele>
        <time>2022-06-26T12:18:35Z</time>
      </trkpt>
      <trkpt lat="51.228856025263667" lon="4.619058296084404">
        <ele>-17.219999999999999</ele>
        <time>2022-06-26T12:18:43Z</time>
      </trkpt>
      <trkpt lat="51.228855773806572" lon="4.619086710736156">
        <ele>-17.210000000000001</ele>
        <time>2022-06-26T12:18:44Z</time>
      </trkpt>
      <trkpt lat="51.22885468415916" lon="4.619120741263032">
        <ele>-17.199999999999999</ele>
        <time>2022-06-26T12:18:45Z</time>
      </trkpt>
      <trkpt lat="51.228855354711413" lon="4.619175894185901">
        <ele>-17.18</ele>
        <time>2022-06-26T12:18:48Z</time>
      </trkpt>
      <trkpt lat="51.228835741057992" lon="4.619365073740482">
        <ele>-17.120000000000001</ele>
        <time>2022-06-26T12:18:57Z</time>
      </trkpt>
      <trkpt lat="51.22883565723896" lon="4.619386782869697">
        <ele>-17.109999999999999</ele>
        <time>2022-06-26T12:18:58Z</time>
      </trkpt>
      <trkpt lat="51.228809589520097" lon="4.619586355984211">
        <ele>-17.039999999999999</ele>
        <time>2022-06-26T12:19:07Z</time>
      </trkpt>
      <trkpt lat="51.228781845420599" lon="4.619962619617581">
        <ele>-16.890000000000001</ele>
        <time>2022-06-26T12:19:27Z</time>
      </trkpt>
      <trkpt lat="51.228684782981873" lon="4.620579527691007">
        <ele>-16.760000000000002</ele>
        <time>2022-06-26T12:19:43Z</time>
      </trkpt>
      <trkpt lat="51.228631976991892" lon="4.620871469378471">
        <ele>-16.670000000000002</ele>
        <time>2022-06-26T12:19:54Z</time>
      </trkpt>
      <trkpt lat="51.228602640330791" lon="4.62120657786727">
        <ele>-16.550000000000001</ele>
        <time>2022-06-26T12:20:07Z</time>
      </trkpt>
      <trkpt lat="51.228576572611928" lon="4.621395505964756">
        <ele>-16.469999999999999</ele>
        <time>2022-06-26T12:20:15Z</time>
      </trkpt>
      <trkpt lat="51.228572130203247" lon="4.621419310569763">
        <ele>-16.460000000000001</ele>
        <time>2022-06-26T12:20:16Z</time>
      </trkpt>
      <trkpt lat="51.228549079969525" lon="4.621612932533026">
        <ele>-16.309999999999999</ele>
        <time>2022-06-26T12:20:29Z</time>
      </trkpt>
      <trkpt lat="51.228549582883716" lon="4.621794233098626">
        <ele>-16.210000000000001</ele>
        <time>2022-06-26T12:20:38Z</time>
      </trkpt>
      <trkpt lat="51.228548157960176" lon="4.621813092380762">
        <ele>-16.199999999999999</ele>
        <time>2022-06-26T12:20:39Z</time>
      </trkpt>
      <trkpt lat="51.228515803813934" lon="4.622028507292271">
        <ele>-16.100000000000001</ele>
        <time>2022-06-26T12:20:48Z</time>
      </trkpt>
      <trkpt lat="51.228510690853" lon="4.622051725164056">
        <ele>-16.09</ele>
        <time>2022-06-26T12:20:49Z</time>
      </trkpt>
      <trkpt lat="51.228509014472365" lon="4.622078463435173">
        <ele>-16.079999999999998</ele>
        <time>2022-06-26T12:20:50Z</time>
      </trkpt>
      <trkpt lat="51.228502979502082" lon="4.622100340202451">
        <ele>-16.07</ele>
        <time>2022-06-26T12:20:51Z</time>
      </trkpt>
      <trkpt lat="51.228499710559845" lon="4.622119534760714">
        <ele>-16.059999999999999</ele>
        <time>2022-06-26T12:20:52Z</time>
      </trkpt>
      <trkpt lat="51.228477749973536" lon="4.622424468398094">
        <ele>-15.92</ele>
        <time>2022-06-26T12:21:06Z</time>
      </trkpt>
      <trkpt lat="51.22841346077621" lon="4.622875917702913">
        <ele>-15.779999999999999</ele>
        <time>2022-06-26T12:21:24Z</time>
      </trkpt>
      <trkpt lat="51.22835629619658" lon="4.6233722101897">
        <ele>-15.720000000000001</ele>
        <time>2022-06-26T12:21:44Z</time>
      </trkpt>
      <trkpt lat="51.228351937606931" lon="4.623478576540947">
        <ele>-15.68</ele>
        <time>2022-06-26T12:21:48Z</time>
      </trkpt>
      <trkpt lat="51.228360403329134" lon="4.623590726405382">
        <ele>-15.640000000000001</ele>
        <time>2022-06-26T12:22:08Z</time>
      </trkpt>
      <trkpt lat="51.228358391672373" lon="4.623630037531257">
        <ele>-15.630000000000001</ele>
        <time>2022-06-26T12:22:13Z</time>
      </trkpt>
      <trkpt lat="51.228316565975547" lon="4.623941844329238">
        <ele>-15.6</ele>
        <time>2022-06-26T12:22:31Z</time>
      </trkpt>
      <trkpt lat="51.228292929008603" lon="4.624242000281811">
        <ele>-15.529999999999999</ele>
        <time>2022-06-26T12:22:46Z</time>
      </trkpt>
      <trkpt lat="51.228293180465698" lon="4.624258344992995">
        <ele>-15.529999999999999</ele>
        <time>2022-06-26T12:22:47Z</time>
      </trkpt>
      <trkpt lat="51.228294605389237" lon="4.624360520392656">
        <ele>-15.539999999999999</ele>
        <time>2022-06-26T12:23:06Z</time>
      </trkpt>
      <trkpt lat="51.228228053078055" lon="4.624677021056414">
        <ele>-15.5</ele>
        <time>2022-06-26T12:23:22Z</time>
      </trkpt>
      <trkpt lat="51.228189328685403" lon="4.624907104298472">
        <ele>-15.48</ele>
        <time>2022-06-26T12:23:30Z</time>
      </trkpt>
      <trkpt lat="51.2281808629632" lon="4.624935686588287">
        <ele>-15.470000000000001</ele>
        <time>2022-06-26T12:23:31Z</time>
      </trkpt>
      <trkpt lat="51.228166110813618" lon="4.625007016584277">
        <ele>-15.48</ele>
        <time>2022-06-26T12:23:34Z</time>
      </trkpt>
      <trkpt lat="51.228160411119461" lon="4.625025959685445">
        <ele>-15.460000000000001</ele>
        <time>2022-06-26T12:23:35Z</time>
      </trkpt>
      <trkpt lat="51.228146497160196" lon="4.625084884464741">
        <ele>-15.460000000000001</ele>
        <time>2022-06-26T12:23:38Z</time>
      </trkpt>
      <trkpt lat="51.228041388094425" lon="4.625433152541518">
        <ele>-15.42</ele>
        <time>2022-06-26T12:23:52Z</time>
      </trkpt>
      <trkpt lat="51.228032503277063" lon="4.625453352928162">
        <ele>-15.42</ele>
        <time>2022-06-26T12:23:53Z</time>
      </trkpt>
      <trkpt lat="51.227887580171227" lon="4.625791143625975">
        <ele>-15.4</ele>
        <time>2022-06-26T12:24:10Z</time>
      </trkpt>
      <trkpt lat="51.227874085307121" lon="4.6258295327425">
        <ele>-15.4</ele>
        <time>2022-06-26T12:24:12Z</time>
      </trkpt>
      <trkpt lat="51.227844497188926" lon="4.625921230763197">
        <ele>-15.390000000000001</ele>
        <time>2022-06-26T12:24:16Z</time>
      </trkpt>
      <trkpt lat="51.227739304304123" lon="4.626145865768194">
        <ele>-15.41</ele>
        <time>2022-06-26T12:24:29Z</time>
      </trkpt>
      <trkpt lat="51.227680379524827" lon="4.626259859651327">
        <ele>-14.66</ele>
        <time>2022-06-26T12:24:35Z</time>
      </trkpt>
      <trkpt lat="51.227675015106797" lon="4.626276791095734">
        <ele>-14.67</ele>
        <time>2022-06-26T12:24:36Z</time>
      </trkpt>
      <trkpt lat="51.227663280442357" lon="4.62629321962595">
        <ele>-14.69</ele>
        <time>2022-06-26T12:24:37Z</time>
      </trkpt>
      <trkpt lat="51.227651881054044" lon="4.626305205747485">
        <ele>-14.69</ele>
        <time>2022-06-26T12:24:38Z</time>
      </trkpt>
      <trkpt lat="51.227641571313143" lon="4.626315347850323">
        <ele>-14.69</ele>
        <time>2022-06-26T12:24:39Z</time>
      </trkpt>
      <trkpt lat="51.227627405896783" lon="4.626346025615931">
        <ele>-14.699999999999999</ele>
        <time>2022-06-26T12:24:40Z</time>
      </trkpt>
      <trkpt lat="51.227473933249712" lon="4.626750955358148">
        <ele>-14.789999999999999</ele>
        <time>2022-06-26T12:24:59Z</time>
      </trkpt>
      <trkpt lat="51.227343510836363" lon="4.62705597281456">
        <ele>-14.880000000000001</ele>
        <time>2022-06-26T12:25:13Z</time>
      </trkpt>
      <trkpt lat="51.227338397875428" lon="4.627129230648279">
        <ele>-14.859999999999999</ele>
        <time>2022-06-26T12:25:16Z</time>
      </trkpt>
      <trkpt lat="51.227334206923842" lon="4.627349590882659">
        <ele>-14.99</ele>
        <time>2022-06-26T12:25:28Z</time>
      </trkpt>
      <trkpt lat="51.227336637675762" lon="4.627421507611871">
        <ele>-15.050000000000001</ele>
        <time>2022-06-26T12:25:31Z</time>
      </trkpt>
      <trkpt lat="51.227343007922173" lon="4.627473559230566">
        <ele>-15.039999999999999</ele>
        <time>2022-06-26T12:25:34Z</time>
      </trkpt>
      <trkpt lat="51.227345690131187" lon="4.627495771273971">
        <ele>-15.050000000000001</ele>
        <time>2022-06-26T12:25:35Z</time>
      </trkpt>
      <trkpt lat="51.227346612140536" lon="4.627516055479646">
        <ele>-15.050000000000001</ele>
        <time>2022-06-26T12:25:36Z</time>
      </trkpt>
      <trkpt lat="51.227368656545877" lon="4.627741109579802">
        <ele>-15.119999999999999</ele>
        <time>2022-06-26T12:25:47Z</time>
      </trkpt>
      <trkpt lat="51.22735558077693" lon="4.628079403191805">
        <ele>-15.16</ele>
        <time>2022-06-26T12:26:00Z</time>
      </trkpt>
      <trkpt lat="51.227342085912824" lon="4.628451056778431">
        <ele>-15.23</ele>
        <time>2022-06-26T12:26:13Z</time>
      </trkpt>
      <trkpt lat="51.22735071927309" lon="4.628763953223825">
        <ele>-15.23</ele>
        <time>2022-06-26T12:26:27Z</time>
      </trkpt>
      <trkpt lat="51.227346276864409" lon="4.629202745854855">
        <ele>-15.25</ele>
        <time>2022-06-26T12:26:41Z</time>
      </trkpt>
      <trkpt lat="51.227338816970587" lon="4.629590911790729">
        <ele>-15.16</ele>
        <time>2022-06-26T12:26:53Z</time>
      </trkpt>
      <trkpt lat="51.227376535534859" lon="4.629824263975024">
        <ele>-15.09</ele>
        <time>2022-06-26T12:27:06Z</time>
      </trkpt>
      <trkpt lat="51.227380391210318" lon="4.630159623920918">
        <ele>-14.93</ele>
        <time>2022-06-26T12:27:27Z</time>
      </trkpt>
      <trkpt lat="51.227367902174592" lon="4.63044703938067">
        <ele>-14.800000000000001</ele>
        <time>2022-06-26T12:27:39Z</time>
      </trkpt>
      <trkpt lat="51.22736387886107" lon="4.630502611398697">
        <ele>-14.779999999999999</ele>
        <time>2022-06-26T12:27:41Z</time>
      </trkpt>
      <trkpt lat="51.227369075641036" lon="4.630528846755624">
        <ele>-14.74</ele>
        <time>2022-06-26T12:27:42Z</time>
      </trkpt>
      <trkpt lat="51.227368656545877" lon="4.63057016953826">
        <ele>-14.73</ele>
        <time>2022-06-26T12:27:43Z</time>
      </trkpt>
      <trkpt lat="51.227370081469417" lon="4.631082890555263">
        <ele>-14.6</ele>
        <time>2022-06-26T12:28:03Z</time>
      </trkpt>
      <trkpt lat="51.227377206087112" lon="4.631626373156905">
        <ele>-14.48</ele>
        <time>2022-06-26T12:28:23Z</time>
      </trkpt>
      <trkpt lat="51.227380139753222" lon="4.631656212732196">
        <ele>-14.49</ele>
        <time>2022-06-26T12:28:24Z</time>
      </trkpt>
      <trkpt lat="51.227381145581603" lon="4.631694937124848">
        <ele>-14.49</ele>
        <time>2022-06-26T12:28:25Z</time>
      </trkpt>
      <trkpt lat="51.227383743971586" lon="4.631723770871759">
        <ele>-14.49</ele>
        <time>2022-06-26T12:28:26Z</time>
      </trkpt>
      <trkpt lat="51.227384749799967" lon="4.631754364818335">
        <ele>-14.470000000000001</ele>
        <time>2022-06-26T12:28:27Z</time>
      </trkpt>
      <trkpt lat="51.227383324876428" lon="4.631790490821004">
        <ele>-14.460000000000001</ele>
        <time>2022-06-26T12:28:28Z</time>
      </trkpt>
      <trkpt lat="51.227381229400635" lon="4.631825024262071">
        <ele>-14.460000000000001</ele>
        <time>2022-06-26T12:28:29Z</time>
      </trkpt>
      <trkpt lat="51.227377960458398" lon="4.63185234926641">
        <ele>-14.470000000000001</ele>
        <time>2022-06-26T12:28:30Z</time>
      </trkpt>
      <trkpt lat="51.227371338754892" lon="4.632010348141193">
        <ele>-14.43</ele>
        <time>2022-06-26T12:28:36Z</time>
      </trkpt>
      <trkpt lat="51.227369997650385" lon="4.632049072533846">
        <ele>-14.43</ele>
        <time>2022-06-26T12:28:37Z</time>
      </trkpt>
      <trkpt lat="51.227369159460068" lon="4.632087126374245">
        <ele>-14.43</ele>
        <time>2022-06-26T12:28:38Z</time>
      </trkpt>
      <trkpt lat="51.227367399260402" lon="4.632118809968233">
        <ele>-14.42</ele>
        <time>2022-06-26T12:28:39Z</time>
      </trkpt>
      <trkpt lat="51.227352982386947" lon="4.63244897313416">
        <ele>-14.34</ele>
        <time>2022-06-26T12:28:51Z</time>
      </trkpt>
      <trkpt lat="51.227354742586613" lon="4.632889023050666">
        <ele>-14.220000000000001</ele>
        <time>2022-06-26T12:29:10Z</time>
      </trkpt>
      <trkpt lat="51.227388773113489" lon="4.63335438631475">
        <ele>-14.1</ele>
        <time>2022-06-26T12:29:31Z</time>
      </trkpt>
      <trkpt lat="51.227397155016661" lon="4.633771553635597">
        <ele>-14.01</ele>
        <time>2022-06-26T12:29:47Z</time>
      </trkpt>
      <trkpt lat="51.227402351796627" lon="4.63389384560287">
        <ele>-14</ele>
        <time>2022-06-26T12:29:51Z</time>
      </trkpt>
      <trkpt lat="51.227405872195959" lon="4.63392267934978">
        <ele>-13.99</ele>
        <time>2022-06-26T12:29:52Z</time>
      </trkpt>
      <trkpt lat="51.227428419515491" lon="4.634224930778146">
        <ele>-13.960000000000001</ele>
        <time>2022-06-26T12:30:06Z</time>
      </trkpt>
      <trkpt lat="51.22739564627409" lon="4.634321322664619">
        <ele>-13.92</ele>
        <time>2022-06-26T12:30:33Z</time>
      </trkpt>
      <trkpt lat="51.227381816133857" lon="4.634527014568448">
        <ele>-13.83</ele>
        <time>2022-06-26T12:30:58Z</time>
      </trkpt>
      <trkpt lat="51.227403022348881" lon="4.634648803621531">
        <ele>-13.789999999999999</ele>
        <time>2022-06-26T12:31:04Z</time>
      </trkpt>
      <trkpt lat="51.227404363453388" lon="4.634671518579125">
        <ele>-13.789999999999999</ele>
        <time>2022-06-26T12:31:05Z</time>
      </trkpt>
      <trkpt lat="51.227405034005642" lon="4.634844269603491">
        <ele>-13.77</ele>
        <time>2022-06-26T12:31:12Z</time>
      </trkpt>
      <trkpt lat="51.22740788385272" lon="4.634884502738714">
        <ele>-13.76</ele>
        <time>2022-06-26T12:31:14Z</time>
      </trkpt>
      <trkpt lat="51.227409979328513" lon="4.634916102513671">
        <ele>-13.75</ele>
        <time>2022-06-26T12:31:15Z</time>
      </trkpt>
      <trkpt lat="51.227409476414323" lon="4.634948708117008">
        <ele>-13.75</ele>
        <time>2022-06-26T12:31:16Z</time>
      </trkpt>
      <trkpt lat="51.227410063147545" lon="4.634976033121347">
        <ele>-13.74</ele>
        <time>2022-06-26T12:31:17Z</time>
      </trkpt>
      <trkpt lat="51.227411823347211" lon="4.635002184659243">
        <ele>-13.74</ele>
        <time>2022-06-26T12:31:18Z</time>
      </trkpt>
      <trkpt lat="51.227413080632687" lon="4.635037053376436">
        <ele>-13.74</ele>
        <time>2022-06-26T12:31:19Z</time>
      </trkpt>
      <trkpt lat="51.227413835003972" lon="4.635088182985783">
        <ele>-13.74</ele>
        <time>2022-06-26T12:31:20Z</time>
      </trkpt>
      <trkpt lat="51.227415427565575" lon="4.635124392807484">
        <ele>-13.73</ele>
        <time>2022-06-26T12:31:21Z</time>
      </trkpt>
      <trkpt lat="51.227416265755892" lon="4.635154651477933">
        <ele>-13.73</ele>
        <time>2022-06-26T12:31:22Z</time>
      </trkpt>
      <trkpt lat="51.227409057319164" lon="4.635544577613473">
        <ele>-12.69</ele>
        <time>2022-06-26T12:31:34Z</time>
      </trkpt>
      <trkpt lat="51.227424899116158" lon="4.635818498209119">
        <ele>-12.699999999999999</ele>
        <time>2022-06-26T12:31:45Z</time>
      </trkpt>
      <trkpt lat="51.22741861268878" lon="4.636026872321963">
        <ele>-12.69</ele>
        <time>2022-06-26T12:31:57Z</time>
      </trkpt>
      <trkpt lat="51.227445853874087" lon="4.63614639826119">
        <ele>-12.59</ele>
        <time>2022-06-26T12:32:21Z</time>
      </trkpt>
      <trkpt lat="51.227491451427341" lon="4.636359382420778">
        <ele>-12.56</ele>
        <time>2022-06-26T12:32:40Z</time>
      </trkpt>
      <trkpt lat="51.227598320692778" lon="4.636521656066179">
        <ele>-12.52</ele>
        <time>2022-06-26T12:32:52Z</time>
      </trkpt>
      <trkpt lat="51.227805353701115" lon="4.636701699346304">
        <ele>-12.48</ele>
        <time>2022-06-26T12:33:11Z</time>
      </trkpt>
      <trkpt lat="51.227822368964553" lon="4.636713769286871">
        <ele>-12.49</ele>
        <time>2022-06-26T12:33:12Z</time>
      </trkpt>
      <trkpt lat="51.227986067533493" lon="4.636971261352301">
        <ele>-12.48</ele>
        <time>2022-06-26T12:33:27Z</time>
      </trkpt>
      <trkpt lat="51.228242972865701" lon="4.637289941310883">
        <ele>-12.43</ele>
        <time>2022-06-26T12:33:44Z</time>
      </trkpt>
      <trkpt lat="51.22825319878757" lon="4.637310476973653">
        <ele>-12.44</ele>
        <time>2022-06-26T12:33:45Z</time>
      </trkpt>
      <trkpt lat="51.228265184909105" lon="4.637327995151281">
        <ele>-12.44</ele>
        <time>2022-06-26T12:33:46Z</time>
      </trkpt>
      <trkpt lat="51.228273315355182" lon="4.637429164722562">
        <ele>-12.42</ele>
        <time>2022-06-26T12:33:59Z</time>
      </trkpt>
      <trkpt lat="51.228119758889079" lon="4.637714987620711">
        <ele>-12.4</ele>
        <time>2022-06-26T12:34:19Z</time>
      </trkpt>
      <trkpt lat="51.228106934577227" lon="4.637744408100843">
        <ele>-12.41</ele>
        <time>2022-06-26T12:34:20Z</time>
      </trkpt>
      <trkpt lat="51.227860255166888" lon="4.638044899329543">
        <ele>-12.51</ele>
        <time>2022-06-26T12:34:41Z</time>
      </trkpt>
      <trkpt lat="51.227704519405961" lon="4.638312784954906">
        <ele>-12.56</ele>
        <time>2022-06-26T12:34:56Z</time>
      </trkpt>
      <trkpt lat="51.227674512192607" lon="4.638504814356566">
        <ele>-12.66</ele>
        <time>2022-06-26T12:35:12Z</time>
      </trkpt>
      <trkpt lat="51.227652970701456" lon="4.638526607304812">
        <ele>-12.68</ele>
        <time>2022-06-26T12:35:14Z</time>
      </trkpt>
      <trkpt lat="51.227643080055714" lon="4.638540018349886">
        <ele>-12.68</ele>
        <time>2022-06-26T12:35:15Z</time>
      </trkpt>
      <trkpt lat="51.2276282440871" lon="4.638552172109485">
        <ele>-15.01</ele>
        <time>2022-06-26T12:35:16Z</time>
      </trkpt>
      <trkpt lat="51.227617599070072" lon="4.638562733307481">
        <ele>-15.01</ele>
        <time>2022-06-26T12:35:17Z</time>
      </trkpt>
      <trkpt lat="51.227441914379597" lon="4.638746213167906">
        <ele>-15.08</ele>
        <time>2022-06-26T12:35:30Z</time>
      </trkpt>
      <trkpt lat="51.227428000420332" lon="4.638760378584266">
        <ele>-15.09</ele>
        <time>2022-06-26T12:35:31Z</time>
      </trkpt>
      <trkpt lat="51.22729548253119" lon="4.63887738995254">
        <ele>-15.130000000000001</ele>
        <time>2022-06-26T12:35:42Z</time>
      </trkpt>
      <trkpt lat="51.227083839476109" lon="4.639016026630998">
        <ele>-15.210000000000001</ele>
        <time>2022-06-26T12:35:59Z</time>
      </trkpt>
      <trkpt lat="51.226985016837716" lon="4.6391661465168">
        <ele>-15.27</ele>
        <time>2022-06-26T12:36:09Z</time>
      </trkpt>
      <trkpt lat="51.226732302457094" lon="4.639234207570553">
        <ele>-16.239999999999998</ele>
        <time>2022-06-26T12:36:26Z</time>
      </trkpt>
      <trkpt lat="51.226642029359937" lon="4.639275781810284">
        <ele>-16.260000000000002</ele>
        <time>2022-06-26T12:36:30Z</time>
      </trkpt>
      <trkpt lat="51.226531807333231" lon="4.639323558658361">
        <ele>-16.32</ele>
        <time>2022-06-26T12:36:36Z</time>
      </trkpt>
      <trkpt lat="51.226487467065454" lon="4.639326576143503">
        <ele>-16.350000000000001</ele>
        <time>2022-06-26T12:36:39Z</time>
      </trkpt>
      <trkpt lat="51.226445725187659" lon="4.639343088492751">
        <ele>-16.41</ele>
        <time>2022-06-26T12:36:45Z</time>
      </trkpt>
      <trkpt lat="51.226300382986665" lon="4.639353901147842">
        <ele>-16.52</ele>
        <time>2022-06-26T12:37:00Z</time>
      </trkpt>
      <trkpt lat="51.226290995255113" lon="4.639400839805603">
        <ele>-16.629999999999999</ele>
        <time>2022-06-26T12:37:21Z</time>
      </trkpt>
      <trkpt lat="51.226285714656115" lon="4.639477785676718">
        <ele>-16.719999999999999</ele>
        <time>2022-06-26T12:37:46Z</time>
      </trkpt>
      <trkpt lat="51.226242296397686" lon="4.639538051560521">
        <ele>-16.77</ele>
        <time>2022-06-26T12:38:06Z</time>
      </trkpt>
      <trkpt lat="51.226227208971977" lon="4.639562023803592">
        <ele>-33.619999999999997</ele>
        <time>2022-06-26T12:38:14Z</time>
      </trkpt>
    </trkseg>
  </trk>

</gpx>